<?xml version="1.0" encoding="UTF-8" standalone="no" ?>
<gpx xmlns="http://www.topografix.com/GPX/1/1" xmlns:xsi="http://www.w3.org/2001/XMLSchema-instance" xsi:schemaLocation="http://www.topografix.com/GPX/1/1 http://www.topografix.com/GPX/1/1/gpx.xsd" version="1.1" creator="VisuGPX - https://www.visugpx.com">
  <metadata>
    <name>balade a pornic </name>
    <desc><![CDATA[vent important de face a l\\\'aller et a moitier perdu au retour malgré tout une moyenne de 29.1 plutot content de moi ]]></desc>
  </metadata>
  <trk>
    <name><![CDATA[Sequence 3]]></name>
    <trkseg>
      <trkpt lat="47.11515" lon="-1.93683">
        <ele>21</ele>
        <time>2014-04-08T14:56:04Z</time>
      </trkpt>
      <trkpt lat="47.11533" lon="-1.93652">
        <ele>24</ele>
        <time>2014-04-08T14:56:08Z</time>
      </trkpt>
      <trkpt lat="47.11547" lon="-1.93615">
        <ele>23</ele>
        <time>2014-04-08T14:56:12Z</time>
      </trkpt>
      <trkpt lat="47.11555" lon="-1.93598">
        <ele>24</ele>
        <time>2014-04-08T14:56:15Z</time>
      </trkpt>
      <trkpt lat="47.11564" lon="-1.93571">
        <ele>25</ele>
        <time>2014-04-08T14:56:17Z</time>
      </trkpt>
      <trkpt lat="47.11585" lon="-1.93508">
        <ele>27</ele>
        <time>2014-04-08T14:56:24Z</time>
      </trkpt>
      <trkpt lat="47.1159" lon="-1.93484">
        <ele>25</ele>
        <time>2014-04-08T14:56:25Z</time>
      </trkpt>
      <trkpt lat="47.11654" lon="-1.93288">
        <ele>27</ele>
        <time>2014-04-08T14:56:44Z</time>
      </trkpt>
      <trkpt lat="47.11718" lon="-1.93066">
        <ele>34</ele>
        <time>2014-04-08T14:57:06Z</time>
      </trkpt>
      <trkpt lat="47.11728" lon="-1.93033">
        <ele>36</ele>
        <time>2014-04-08T14:57:08Z</time>
      </trkpt>
      <trkpt lat="47.1174" lon="-1.92991">
        <ele>38</ele>
        <time>2014-04-08T14:57:12Z</time>
      </trkpt>
      <trkpt lat="47.11747" lon="-1.92961">
        <ele>37</ele>
        <time>2014-04-08T14:57:15Z</time>
      </trkpt>
      <trkpt lat="47.11788" lon="-1.92826">
        <ele>31</ele>
        <time>2014-04-08T14:57:25Z</time>
      </trkpt>
      <trkpt lat="47.11803" lon="-1.92796">
        <ele>30</ele>
        <time>2014-04-08T14:57:28Z</time>
      </trkpt>
      <trkpt lat="47.11821" lon="-1.92742">
        <ele>32</ele>
        <time>2014-04-08T14:57:33Z</time>
      </trkpt>
      <trkpt lat="47.11836" lon="-1.92695">
        <ele>31</ele>
        <time>2014-04-08T14:57:37Z</time>
      </trkpt>
      <trkpt lat="47.11846" lon="-1.92663">
        <ele>30</ele>
        <time>2014-04-08T14:57:40Z</time>
      </trkpt>
      <trkpt lat="47.11859" lon="-1.92618">
        <ele>32</ele>
        <time>2014-04-08T14:57:44Z</time>
      </trkpt>
      <trkpt lat="47.11872" lon="-1.9257">
        <ele>28</ele>
        <time>2014-04-08T14:57:48Z</time>
      </trkpt>
      <trkpt lat="47.1188" lon="-1.92546">
        <ele>28</ele>
        <time>2014-04-08T14:57:51Z</time>
      </trkpt>
      <trkpt lat="47.11894" lon="-1.92492">
        <ele>27</ele>
        <time>2014-04-08T14:57:55Z</time>
      </trkpt>
      <trkpt lat="47.11907" lon="-1.92453">
        <ele>28</ele>
        <time>2014-04-08T14:57:58Z</time>
      </trkpt>
      <trkpt lat="47.11923" lon="-1.92402">
        <ele>28</ele>
        <time>2014-04-08T14:58:03Z</time>
      </trkpt>
      <trkpt lat="47.11984" lon="-1.92214">
        <ele>33</ele>
        <time>2014-04-08T14:58:21Z</time>
      </trkpt>
      <trkpt lat="47.11993" lon="-1.9218">
        <ele>32</ele>
        <time>2014-04-08T14:58:25Z</time>
      </trkpt>
      <trkpt lat="47.11998" lon="-1.92151">
        <ele>30</ele>
        <time>2014-04-08T14:58:29Z</time>
      </trkpt>
      <trkpt lat="47.12" lon="-1.92133">
        <ele>30</ele>
        <time>2014-04-08T14:58:30Z</time>
      </trkpt>
      <trkpt lat="47.12021" lon="-1.92069">
        <ele>30</ele>
        <time>2014-04-08T14:58:37Z</time>
      </trkpt>
      <trkpt lat="47.12028" lon="-1.92048">
        <ele>30</ele>
        <time>2014-04-08T14:58:39Z</time>
      </trkpt>
      <trkpt lat="47.12057" lon="-1.91975">
        <ele>31</ele>
        <time>2014-04-08T14:58:46Z</time>
      </trkpt>
      <trkpt lat="47.12062" lon="-1.91968">
        <ele>32</ele>
        <time>2014-04-08T14:58:47Z</time>
      </trkpt>
      <trkpt lat="47.12077" lon="-1.91911">
        <ele>30</ele>
        <time>2014-04-08T14:58:52Z</time>
      </trkpt>
      <trkpt lat="47.12104" lon="-1.91845">
        <ele>29</ele>
        <time>2014-04-08T14:58:57Z</time>
      </trkpt>
      <trkpt lat="47.1212" lon="-1.91812">
        <ele>29</ele>
        <time>2014-04-08T14:59:01Z</time>
      </trkpt>
      <trkpt lat="47.12134" lon="-1.91766">
        <ele>28</ele>
        <time>2014-04-08T14:59:05Z</time>
      </trkpt>
      <trkpt lat="47.12147" lon="-1.91736">
        <ele>28</ele>
        <time>2014-04-08T14:59:08Z</time>
      </trkpt>
      <trkpt lat="47.12168" lon="-1.91668">
        <ele>26</ele>
        <time>2014-04-08T14:59:13Z</time>
      </trkpt>
      <trkpt lat="47.1218" lon="-1.91623">
        <ele>20</ele>
        <time>2014-04-08T14:59:17Z</time>
      </trkpt>
      <trkpt lat="47.12195" lon="-1.91587">
        <ele>19</ele>
        <time>2014-04-08T14:59:20Z</time>
      </trkpt>
      <trkpt lat="47.12213" lon="-1.91532">
        <ele>18</ele>
        <time>2014-04-08T14:59:25Z</time>
      </trkpt>
      <trkpt lat="47.12215" lon="-1.91526">
        <ele>17</ele>
        <time>2014-04-08T14:59:26Z</time>
      </trkpt>
      <trkpt lat="47.12216" lon="-1.91462">
        <ele>18</ele>
        <time>2014-04-08T14:59:33Z</time>
      </trkpt>
      <trkpt lat="47.1223" lon="-1.91419">
        <ele>18</ele>
        <time>2014-04-08T14:59:37Z</time>
      </trkpt>
      <trkpt lat="47.12249" lon="-1.91377">
        <ele>19</ele>
        <time>2014-04-08T14:59:41Z</time>
      </trkpt>
      <trkpt lat="47.12256" lon="-1.91372">
        <ele>19</ele>
        <time>2014-04-08T14:59:42Z</time>
      </trkpt>
      <trkpt lat="47.1229" lon="-1.91308">
        <ele>19</ele>
        <time>2014-04-08T14:59:48Z</time>
      </trkpt>
      <trkpt lat="47.12326" lon="-1.91254">
        <ele>19</ele>
        <time>2014-04-08T14:59:54Z</time>
      </trkpt>
      <trkpt lat="47.1233" lon="-1.91244">
        <ele>18</ele>
        <time>2014-04-08T14:59:55Z</time>
      </trkpt>
      <trkpt lat="47.12354" lon="-1.9119">
        <ele>19</ele>
        <time>2014-04-08T15:00:01Z</time>
      </trkpt>
      <trkpt lat="47.12378" lon="-1.91148">
        <ele>18</ele>
        <time>2014-04-08T15:00:06Z</time>
      </trkpt>
      <trkpt lat="47.12393" lon="-1.91126">
        <ele>20</ele>
        <time>2014-04-08T15:00:09Z</time>
      </trkpt>
      <trkpt lat="47.12403" lon="-1.91106">
        <ele>19</ele>
        <time>2014-04-08T15:00:14Z</time>
      </trkpt>
      <trkpt lat="47.12416" lon="-1.91099">
        <ele>18</ele>
        <time>2014-04-08T15:00:17Z</time>
      </trkpt>
      <trkpt lat="47.12437" lon="-1.91084">
        <ele>14</ele>
        <time>2014-04-08T15:00:20Z</time>
      </trkpt>
      <trkpt lat="47.12472" lon="-1.91065">
        <ele>12</ele>
        <time>2014-04-08T15:00:27Z</time>
      </trkpt>
      <trkpt lat="47.12489" lon="-1.91059">
        <ele>12</ele>
        <time>2014-04-08T15:00:29Z</time>
      </trkpt>
      <trkpt lat="47.12517" lon="-1.91053">
        <ele>13</ele>
        <time>2014-04-08T15:00:33Z</time>
      </trkpt>
      <trkpt lat="47.12543" lon="-1.91052">
        <ele>14</ele>
        <time>2014-04-08T15:00:37Z</time>
      </trkpt>
      <trkpt lat="47.12568" lon="-1.91049">
        <ele>14</ele>
        <time>2014-04-08T15:00:41Z</time>
      </trkpt>
      <trkpt lat="47.12553" lon="-1.9106">
        <ele>13</ele>
        <time>2014-04-08T15:00:48Z</time>
      </trkpt>
      <trkpt lat="47.12534" lon="-1.91062">
        <ele>13</ele>
        <time>2014-04-08T15:00:51Z</time>
      </trkpt>
      <trkpt lat="47.12523" lon="-1.91049">
        <ele>14</ele>
        <time>2014-04-08T15:00:55Z</time>
      </trkpt>
      <trkpt lat="47.12533" lon="-1.91007">
        <ele>16</ele>
        <time>2014-04-08T15:01:02Z</time>
      </trkpt>
      <trkpt lat="47.12547" lon="-1.90976">
        <ele>17</ele>
        <time>2014-04-08T15:01:05Z</time>
      </trkpt>
      <trkpt lat="47.12559" lon="-1.90952">
        <ele>17</ele>
        <time>2014-04-08T15:01:08Z</time>
      </trkpt>
      <trkpt lat="47.12589" lon="-1.90913">
        <ele>20</ele>
        <time>2014-04-08T15:01:13Z</time>
      </trkpt>
      <trkpt lat="47.1261" lon="-1.90891">
        <ele>22</ele>
        <time>2014-04-08T15:01:17Z</time>
      </trkpt>
      <trkpt lat="47.12627" lon="-1.90876">
        <ele>23</ele>
        <time>2014-04-08T15:01:21Z</time>
      </trkpt>
      <trkpt lat="47.12644" lon="-1.90863">
        <ele>25</ele>
        <time>2014-04-08T15:01:23Z</time>
      </trkpt>
      <trkpt lat="47.12668" lon="-1.90816">
        <ele>24</ele>
        <time>2014-04-08T15:01:30Z</time>
      </trkpt>
      <trkpt lat="47.12671" lon="-1.90778">
        <ele>25</ele>
        <time>2014-04-08T15:01:34Z</time>
      </trkpt>
      <trkpt lat="47.1267" lon="-1.90767">
        <ele>25</ele>
        <time>2014-04-08T15:01:35Z</time>
      </trkpt>
      <trkpt lat="47.12663" lon="-1.90723">
        <ele>24</ele>
        <time>2014-04-08T15:01:39Z</time>
      </trkpt>
      <trkpt lat="47.12652" lon="-1.90637">
        <ele>25</ele>
        <time>2014-04-08T15:01:45Z</time>
      </trkpt>
      <trkpt lat="47.12647" lon="-1.90581">
        <ele>24</ele>
        <time>2014-04-08T15:01:49Z</time>
      </trkpt>
      <trkpt lat="47.12646" lon="-1.90564">
        <ele>24</ele>
        <time>2014-04-08T15:01:50Z</time>
      </trkpt>
      <trkpt lat="47.12645" lon="-1.90469">
        <ele>25</ele>
        <time>2014-04-08T15:01:58Z</time>
      </trkpt>
      <trkpt lat="47.12645" lon="-1.90458">
        <ele>25</ele>
        <time>2014-04-08T15:01:58Z</time>
      </trkpt>
      <trkpt lat="47.12646" lon="-1.90359">
        <ele>23</ele>
        <time>2014-04-08T15:02:05Z</time>
      </trkpt>
      <trkpt lat="47.12645" lon="-1.90304">
        <ele>21</ele>
        <time>2014-04-08T15:02:09Z</time>
      </trkpt>
      <trkpt lat="47.12653" lon="-1.90254">
        <ele>21</ele>
        <time>2014-04-08T15:02:13Z</time>
      </trkpt>
      <trkpt lat="47.12656" lon="-1.90211">
        <ele>19</ele>
        <time>2014-04-08T15:02:16Z</time>
      </trkpt>
      <trkpt lat="47.12658" lon="-1.90166">
        <ele>19</ele>
        <time>2014-04-08T15:02:20Z</time>
      </trkpt>
      <trkpt lat="47.12664" lon="-1.90117">
        <ele>19</ele>
        <time>2014-04-08T15:02:24Z</time>
      </trkpt>
      <trkpt lat="47.12664" lon="-1.90078">
        <ele>19</ele>
        <time>2014-04-08T15:02:26Z</time>
      </trkpt>
      <trkpt lat="47.12673" lon="-1.8999">
        <ele>18</ele>
        <time>2014-04-08T15:02:34Z</time>
      </trkpt>
      <trkpt lat="47.12681" lon="-1.8995">
        <ele>17</ele>
        <time>2014-04-08T15:02:36Z</time>
      </trkpt>
      <trkpt lat="47.12687" lon="-1.89901">
        <ele>15</ele>
        <time>2014-04-08T15:02:40Z</time>
      </trkpt>
      <trkpt lat="47.12694" lon="-1.89851">
        <ele>15</ele>
        <time>2014-04-08T15:02:45Z</time>
      </trkpt>
      <trkpt lat="47.127" lon="-1.89811">
        <ele>15</ele>
        <time>2014-04-08T15:02:48Z</time>
      </trkpt>
      <trkpt lat="47.12705" lon="-1.89769">
        <ele>16</ele>
        <time>2014-04-08T15:02:50Z</time>
      </trkpt>
      <trkpt lat="47.12714" lon="-1.89696">
        <ele>15</ele>
        <time>2014-04-08T15:02:56Z</time>
      </trkpt>
      <trkpt lat="47.12716" lon="-1.89677">
        <ele>15</ele>
        <time>2014-04-08T15:02:58Z</time>
      </trkpt>
      <trkpt lat="47.12729" lon="-1.89594">
        <ele>16</ele>
        <time>2014-04-08T15:03:04Z</time>
      </trkpt>
      <trkpt lat="47.12744" lon="-1.89534">
        <ele>14</ele>
        <time>2014-04-08T15:03:10Z</time>
      </trkpt>
      <trkpt lat="47.12756" lon="-1.89484">
        <ele>15</ele>
        <time>2014-04-08T15:03:13Z</time>
      </trkpt>
      <trkpt lat="47.12769" lon="-1.89423">
        <ele>15</ele>
        <time>2014-04-08T15:03:18Z</time>
      </trkpt>
      <trkpt lat="47.12778" lon="-1.89381">
        <ele>15</ele>
        <time>2014-04-08T15:03:21Z</time>
      </trkpt>
      <trkpt lat="47.12789" lon="-1.89335">
        <ele>16</ele>
        <time>2014-04-08T15:03:25Z</time>
      </trkpt>
      <trkpt lat="47.12797" lon="-1.89263">
        <ele>15</ele>
        <time>2014-04-08T15:03:30Z</time>
      </trkpt>
      <trkpt lat="47.12797" lon="-1.89235">
        <ele>15</ele>
        <time>2014-04-08T15:03:33Z</time>
      </trkpt>
      <trkpt lat="47.12805" lon="-1.89169">
        <ele>15</ele>
        <time>2014-04-08T15:03:38Z</time>
      </trkpt>
      <trkpt lat="47.12809" lon="-1.89119">
        <ele>14</ele>
        <time>2014-04-08T15:03:42Z</time>
      </trkpt>
      <trkpt lat="47.12812" lon="-1.8907">
        <ele>14</ele>
        <time>2014-04-08T15:03:45Z</time>
      </trkpt>
      <trkpt lat="47.12818" lon="-1.89006">
        <ele>15</ele>
        <time>2014-04-08T15:03:51Z</time>
      </trkpt>
      <trkpt lat="47.12821" lon="-1.88965">
        <ele>16</ele>
        <time>2014-04-08T15:03:53Z</time>
      </trkpt>
      <trkpt lat="47.12825" lon="-1.88922">
        <ele>17</ele>
        <time>2014-04-08T15:03:56Z</time>
      </trkpt>
      <trkpt lat="47.12836" lon="-1.88863">
        <ele>20</ele>
        <time>2014-04-08T15:04:01Z</time>
      </trkpt>
      <trkpt lat="47.12847" lon="-1.8881">
        <ele>21</ele>
        <time>2014-04-08T15:04:06Z</time>
      </trkpt>
      <trkpt lat="47.12853" lon="-1.8878">
        <ele>20</ele>
        <time>2014-04-08T15:04:07Z</time>
      </trkpt>
      <trkpt lat="47.12873" lon="-1.88702">
        <ele>20</ele>
        <time>2014-04-08T15:04:14Z</time>
      </trkpt>
      <trkpt lat="47.12887" lon="-1.88659">
        <ele>21</ele>
        <time>2014-04-08T15:04:17Z</time>
      </trkpt>
      <trkpt lat="47.12903" lon="-1.88615">
        <ele>22</ele>
        <time>2014-04-08T15:04:21Z</time>
      </trkpt>
      <trkpt lat="47.12919" lon="-1.88571">
        <ele>23</ele>
        <time>2014-04-08T15:04:25Z</time>
      </trkpt>
      <trkpt lat="47.12928" lon="-1.88549">
        <ele>22</ele>
        <time>2014-04-08T15:04:28Z</time>
      </trkpt>
      <trkpt lat="47.1296" lon="-1.88492">
        <ele>25</ele>
        <time>2014-04-08T15:04:34Z</time>
      </trkpt>
      <trkpt lat="47.12986" lon="-1.88443">
        <ele>24</ele>
        <time>2014-04-08T15:04:39Z</time>
      </trkpt>
      <trkpt lat="47.12997" lon="-1.88416">
        <ele>27</ele>
        <time>2014-04-08T15:04:42Z</time>
      </trkpt>
      <trkpt lat="47.13025" lon="-1.88363">
        <ele>26</ele>
        <time>2014-04-08T15:04:47Z</time>
      </trkpt>
      <trkpt lat="47.13038" lon="-1.88338">
        <ele>27</ele>
        <time>2014-04-08T15:04:49Z</time>
      </trkpt>
      <trkpt lat="47.13057" lon="-1.88297">
        <ele>26</ele>
        <time>2014-04-08T15:04:53Z</time>
      </trkpt>
      <trkpt lat="47.13073" lon="-1.88268">
        <ele>26</ele>
        <time>2014-04-08T15:04:57Z</time>
      </trkpt>
      <trkpt lat="47.13096" lon="-1.88224">
        <ele>25</ele>
        <time>2014-04-08T15:05:01Z</time>
      </trkpt>
      <trkpt lat="47.13113" lon="-1.88183">
        <ele>29</ele>
        <time>2014-04-08T15:05:05Z</time>
      </trkpt>
      <trkpt lat="47.13136" lon="-1.88136">
        <ele>31</ele>
        <time>2014-04-08T15:05:10Z</time>
      </trkpt>
      <trkpt lat="47.13152" lon="-1.88089">
        <ele>29</ele>
        <time>2014-04-08T15:05:14Z</time>
      </trkpt>
      <trkpt lat="47.13169" lon="-1.88049">
        <ele>28</ele>
        <time>2014-04-08T15:05:18Z</time>
      </trkpt>
      <trkpt lat="47.13178" lon="-1.88004">
        <ele>27</ele>
        <time>2014-04-08T15:05:21Z</time>
      </trkpt>
      <trkpt lat="47.13193" lon="-1.8796">
        <ele>27</ele>
        <time>2014-04-08T15:05:25Z</time>
      </trkpt>
      <trkpt lat="47.13211" lon="-1.87904">
        <ele>26</ele>
        <time>2014-04-08T15:05:30Z</time>
      </trkpt>
      <trkpt lat="47.13214" lon="-1.87892">
        <ele>24</ele>
        <time>2014-04-08T15:05:32Z</time>
      </trkpt>
      <trkpt lat="47.13232" lon="-1.87821">
        <ele>24</ele>
        <time>2014-04-08T15:05:38Z</time>
      </trkpt>
      <trkpt lat="47.13242" lon="-1.87761">
        <ele>23</ele>
        <time>2014-04-08T15:05:43Z</time>
      </trkpt>
      <trkpt lat="47.13247" lon="-1.87737">
        <ele>22</ele>
        <time>2014-04-08T15:05:44Z</time>
      </trkpt>
      <trkpt lat="47.13255" lon="-1.87674">
        <ele>24</ele>
        <time>2014-04-08T15:05:50Z</time>
      </trkpt>
      <trkpt lat="47.13256" lon="-1.87652">
        <ele>25</ele>
        <time>2014-04-08T15:05:51Z</time>
      </trkpt>
      <trkpt lat="47.13263" lon="-1.87564">
        <ele>26</ele>
        <time>2014-04-08T15:05:59Z</time>
      </trkpt>
      <trkpt lat="47.13264" lon="-1.87515">
        <ele>25</ele>
        <time>2014-04-08T15:06:02Z</time>
      </trkpt>
      <trkpt lat="47.13261" lon="-1.87454">
        <ele>23</ele>
        <time>2014-04-08T15:06:06Z</time>
      </trkpt>
      <trkpt lat="47.13258" lon="-1.87412">
        <ele>19</ele>
        <time>2014-04-08T15:06:10Z</time>
      </trkpt>
      <trkpt lat="47.13256" lon="-1.87355">
        <ele>19</ele>
        <time>2014-04-08T15:06:14Z</time>
      </trkpt>
      <trkpt lat="47.13256" lon="-1.87328">
        <ele>18</ele>
        <time>2014-04-08T15:06:15Z</time>
      </trkpt>
      <trkpt lat="47.13248" lon="-1.8723">
        <ele>17</ele>
        <time>2014-04-08T15:06:23Z</time>
      </trkpt>
      <trkpt lat="47.13244" lon="-1.87187">
        <ele>17</ele>
        <time>2014-04-08T15:06:25Z</time>
      </trkpt>
      <trkpt lat="47.13239" lon="-1.87127">
        <ele>18</ele>
        <time>2014-04-08T15:06:29Z</time>
      </trkpt>
      <trkpt lat="47.13235" lon="-1.87068">
        <ele>18</ele>
        <time>2014-04-08T15:06:33Z</time>
      </trkpt>
      <trkpt lat="47.13231" lon="-1.86994">
        <ele>19</ele>
        <time>2014-04-08T15:06:38Z</time>
      </trkpt>
      <trkpt lat="47.13226" lon="-1.86939">
        <ele>18</ele>
        <time>2014-04-08T15:06:42Z</time>
      </trkpt>
      <trkpt lat="47.13221" lon="-1.86878">
        <ele>17</ele>
        <time>2014-04-08T15:06:47Z</time>
      </trkpt>
      <trkpt lat="47.13218" lon="-1.86837">
        <ele>20</ele>
        <time>2014-04-08T15:06:50Z</time>
      </trkpt>
      <trkpt lat="47.13214" lon="-1.8679">
        <ele>20</ele>
        <time>2014-04-08T15:06:52Z</time>
      </trkpt>
      <trkpt lat="47.13204" lon="-1.86697">
        <ele>15</ele>
        <time>2014-04-08T15:06:59Z</time>
      </trkpt>
      <trkpt lat="47.13203" lon="-1.86666">
        <ele>16</ele>
        <time>2014-04-08T15:07:00Z</time>
      </trkpt>
      <trkpt lat="47.13195" lon="-1.86568">
        <ele>14</ele>
        <time>2014-04-08T15:07:08Z</time>
      </trkpt>
      <trkpt lat="47.13192" lon="-1.86527">
        <ele>12</ele>
        <time>2014-04-08T15:07:10Z</time>
      </trkpt>
      <trkpt lat="47.13191" lon="-1.86463">
        <ele>14</ele>
        <time>2014-04-08T15:07:14Z</time>
      </trkpt>
      <trkpt lat="47.13192" lon="-1.86415">
        <ele>13</ele>
        <time>2014-04-08T15:07:18Z</time>
      </trkpt>
      <trkpt lat="47.13196" lon="-1.86355">
        <ele>12</ele>
        <time>2014-04-08T15:07:22Z</time>
      </trkpt>
      <trkpt lat="47.13197" lon="-1.86284">
        <ele>14</ele>
        <time>2014-04-08T15:07:27Z</time>
      </trkpt>
      <trkpt lat="47.13196" lon="-1.86225">
        <ele>15</ele>
        <time>2014-04-08T15:07:31Z</time>
      </trkpt>
      <trkpt lat="47.13202" lon="-1.86165">
        <ele>14</ele>
        <time>2014-04-08T15:07:34Z</time>
      </trkpt>
      <trkpt lat="47.13206" lon="-1.86127">
        <ele>14</ele>
        <time>2014-04-08T15:07:37Z</time>
      </trkpt>
      <trkpt lat="47.13218" lon="-1.86042">
        <ele>15</ele>
        <time>2014-04-08T15:07:44Z</time>
      </trkpt>
      <trkpt lat="47.13228" lon="-1.85999">
        <ele>14</ele>
        <time>2014-04-08T15:07:46Z</time>
      </trkpt>
      <trkpt lat="47.13235" lon="-1.85943">
        <ele>14</ele>
        <time>2014-04-08T15:07:51Z</time>
      </trkpt>
      <trkpt lat="47.13237" lon="-1.85891">
        <ele>13</ele>
        <time>2014-04-08T15:07:55Z</time>
      </trkpt>
      <trkpt lat="47.13243" lon="-1.85848">
        <ele>13</ele>
        <time>2014-04-08T15:07:58Z</time>
      </trkpt>
      <trkpt lat="47.13248" lon="-1.85784">
        <ele>15</ele>
        <time>2014-04-08T15:08:02Z</time>
      </trkpt>
      <trkpt lat="47.13248" lon="-1.8573">
        <ele>16</ele>
        <time>2014-04-08T15:08:07Z</time>
      </trkpt>
      <trkpt lat="47.13244" lon="-1.85657">
        <ele>13</ele>
        <time>2014-04-08T15:08:12Z</time>
      </trkpt>
      <trkpt lat="47.13242" lon="-1.85613">
        <ele>14</ele>
        <time>2014-04-08T15:08:14Z</time>
      </trkpt>
      <trkpt lat="47.13242" lon="-1.85573">
        <ele>13</ele>
        <time>2014-04-08T15:08:18Z</time>
      </trkpt>
      <trkpt lat="47.13239" lon="-1.85484">
        <ele>16</ele>
        <time>2014-04-08T15:08:23Z</time>
      </trkpt>
      <trkpt lat="47.13238" lon="-1.85433">
        <ele>15</ele>
        <time>2014-04-08T15:08:27Z</time>
      </trkpt>
      <trkpt lat="47.13236" lon="-1.85396">
        <ele>16</ele>
        <time>2014-04-08T15:08:31Z</time>
      </trkpt>
      <trkpt lat="47.13234" lon="-1.85356">
        <ele>15</ele>
        <time>2014-04-08T15:08:33Z</time>
      </trkpt>
      <trkpt lat="47.1323" lon="-1.85269">
        <ele>12</ele>
        <time>2014-04-08T15:08:40Z</time>
      </trkpt>
      <trkpt lat="47.13229" lon="-1.85241">
        <ele>11</ele>
        <time>2014-04-08T15:08:41Z</time>
      </trkpt>
      <trkpt lat="47.13224" lon="-1.85171">
        <ele>12</ele>
        <time>2014-04-08T15:08:46Z</time>
      </trkpt>
      <trkpt lat="47.13223" lon="-1.8514">
        <ele>10</ele>
        <time>2014-04-08T15:08:49Z</time>
      </trkpt>
      <trkpt lat="47.13218" lon="-1.85051">
        <ele>5</ele>
        <time>2014-04-08T15:08:55Z</time>
      </trkpt>
      <trkpt lat="47.13217" lon="-1.85018">
        <ele>3</ele>
        <time>2014-04-08T15:08:56Z</time>
      </trkpt>
      <trkpt lat="47.13215" lon="-1.84935">
        <ele>2</ele>
        <time>2014-04-08T15:09:02Z</time>
      </trkpt>
      <trkpt lat="47.13213" lon="-1.84864">
        <ele>1</ele>
        <time>2014-04-08T15:09:08Z</time>
      </trkpt>
      <trkpt lat="47.13211" lon="-1.84823">
        <ele>13.2</ele>
        <time>2014-04-08T15:09:11Z</time>
      </trkpt>
      <trkpt lat="47.13209" lon="-1.84771">
        <ele>2</ele>
        <time>2014-04-08T15:09:14Z</time>
      </trkpt>
      <trkpt lat="47.13206" lon="-1.84715">
        <ele>5</ele>
        <time>2014-04-08T15:09:18Z</time>
      </trkpt>
      <trkpt lat="47.13202" lon="-1.84651">
        <ele>3</ele>
        <time>2014-04-08T15:09:23Z</time>
      </trkpt>
      <trkpt lat="47.13201" lon="-1.84612">
        <ele>3</ele>
        <time>2014-04-08T15:09:27Z</time>
      </trkpt>
      <trkpt lat="47.13199" lon="-1.84557">
        <ele>4</ele>
        <time>2014-04-08T15:09:30Z</time>
      </trkpt>
      <trkpt lat="47.13197" lon="-1.84494">
        <ele>6</ele>
        <time>2014-04-08T15:09:36Z</time>
      </trkpt>
      <trkpt lat="47.13193" lon="-1.84445">
        <ele>7</ele>
        <time>2014-04-08T15:09:40Z</time>
      </trkpt>
      <trkpt lat="47.13192" lon="-1.84406">
        <ele>6</ele>
        <time>2014-04-08T15:09:43Z</time>
      </trkpt>
      <trkpt lat="47.13192" lon="-1.84379">
        <ele>6</ele>
        <time>2014-04-08T15:09:44Z</time>
      </trkpt>
      <trkpt lat="47.13192" lon="-1.84282">
        <ele>5</ele>
        <time>2014-04-08T15:09:51Z</time>
      </trkpt>
      <trkpt lat="47.1318" lon="-1.84246">
        <ele>9</ele>
        <time>2014-04-08T15:09:55Z</time>
      </trkpt>
      <trkpt lat="47.13176" lon="-1.84208">
        <ele>13</ele>
        <time>2014-04-08T15:09:59Z</time>
      </trkpt>
      <trkpt lat="47.1317" lon="-1.84157">
        <ele>16</ele>
        <time>2014-04-08T15:10:02Z</time>
      </trkpt>
      <trkpt lat="47.13162" lon="-1.84101">
        <ele>14</ele>
        <time>2014-04-08T15:10:07Z</time>
      </trkpt>
      <trkpt lat="47.13152" lon="-1.84022">
        <ele>13</ele>
        <time>2014-04-08T15:10:12Z</time>
      </trkpt>
      <trkpt lat="47.13144" lon="-1.83981">
        <ele>11</ele>
        <time>2014-04-08T15:10:15Z</time>
      </trkpt>
      <trkpt lat="47.13132" lon="-1.83913">
        <ele>9</ele>
        <time>2014-04-08T15:10:20Z</time>
      </trkpt>
      <trkpt lat="47.13126" lon="-1.83868">
        <ele>8</ele>
        <time>2014-04-08T15:10:23Z</time>
      </trkpt>
      <trkpt lat="47.1312" lon="-1.83833">
        <ele>7</ele>
        <time>2014-04-08T15:10:25Z</time>
      </trkpt>
      <trkpt lat="47.13106" lon="-1.83748">
        <ele>3</ele>
        <time>2014-04-08T15:10:32Z</time>
      </trkpt>
      <trkpt lat="47.13088" lon="-1.83689">
        <ele>2</ele>
        <time>2014-04-08T15:10:36Z</time>
      </trkpt>
      <trkpt lat="47.13079" lon="-1.83655">
        <ele>2</ele>
        <time>2014-04-08T15:10:40Z</time>
      </trkpt>
      <trkpt lat="47.13059" lon="-1.83612">
        <ele>1</ele>
        <time>2014-04-08T15:10:45Z</time>
      </trkpt>
      <trkpt lat="47.13037" lon="-1.83608">
        <ele>1</ele>
        <time>2014-04-08T15:10:47Z</time>
      </trkpt>
      <trkpt lat="47.13017" lon="-1.83571">
        <ele>2</ele>
        <time>2014-04-08T15:10:53Z</time>
      </trkpt>
      <trkpt lat="47.13007" lon="-1.83527">
        <ele>2</ele>
        <time>2014-04-08T15:10:56Z</time>
      </trkpt>
      <trkpt lat="47.13001" lon="-1.8349">
        <ele>1</ele>
        <time>2014-04-08T15:11:00Z</time>
      </trkpt>
      <trkpt lat="47.12997" lon="-1.8345">
        <ele>7.8</ele>
        <time>2014-04-08T15:11:02Z</time>
      </trkpt>
      <trkpt lat="47.12999" lon="-1.83356">
        <ele>-3</ele>
        <time>2014-04-08T15:11:08Z</time>
      </trkpt>
      <trkpt lat="47.13" lon="-1.83326">
        <ele>-4</ele>
        <time>2014-04-08T15:11:11Z</time>
      </trkpt>
      <trkpt lat="47.13001" lon="-1.83248">
        <ele>10</ele>
        <time>2014-04-08T15:11:16Z</time>
      </trkpt>
      <trkpt lat="47.13003" lon="-1.83234">
        <ele>10.5</ele>
        <time>2014-04-08T15:11:17Z</time>
      </trkpt>
      <trkpt lat="47.13007" lon="-1.83162">
        <ele>4</ele>
        <time>2014-04-08T15:11:24Z</time>
      </trkpt>
      <trkpt lat="47.13004" lon="-1.83139">
        <ele>4</ele>
        <time>2014-04-08T15:11:25Z</time>
      </trkpt>
      <trkpt lat="47.12978" lon="-1.83125">
        <ele>3</ele>
        <time>2014-04-08T15:11:29Z</time>
      </trkpt>
      <trkpt lat="47.12951" lon="-1.83143">
        <ele>6</ele>
        <time>2014-04-08T15:11:33Z</time>
      </trkpt>
      <trkpt lat="47.12923" lon="-1.8318">
        <ele>7</ele>
        <time>2014-04-08T15:11:39Z</time>
      </trkpt>
      <trkpt lat="47.12902" lon="-1.83209">
        <ele>9</ele>
        <time>2014-04-08T15:11:42Z</time>
      </trkpt>
      <trkpt lat="47.12862" lon="-1.83243">
        <ele>10</ele>
        <time>2014-04-08T15:11:47Z</time>
      </trkpt>
      <trkpt lat="47.12821" lon="-1.83252">
        <ele>7</ele>
        <time>2014-04-08T15:11:52Z</time>
      </trkpt>
      <trkpt lat="47.12783" lon="-1.83236">
        <ele>6</ele>
        <time>2014-04-08T15:11:57Z</time>
      </trkpt>
      <trkpt lat="47.12753" lon="-1.83213">
        <ele>5</ele>
        <time>2014-04-08T15:12:01Z</time>
      </trkpt>
      <trkpt lat="47.12728" lon="-1.83196">
        <ele>5</ele>
        <time>2014-04-08T15:12:04Z</time>
      </trkpt>
      <trkpt lat="47.12711" lon="-1.83186">
        <ele>4</ele>
        <time>2014-04-08T15:12:06Z</time>
      </trkpt>
      <trkpt lat="47.12681" lon="-1.83165">
        <ele>5</ele>
        <time>2014-04-08T15:12:09Z</time>
      </trkpt>
      <trkpt lat="47.12635" lon="-1.83126">
        <ele>3</ele>
        <time>2014-04-08T15:12:15Z</time>
      </trkpt>
      <trkpt lat="47.12605" lon="-1.83103">
        <ele>5</ele>
        <time>2014-04-08T15:12:19Z</time>
      </trkpt>
      <trkpt lat="47.12565" lon="-1.83081">
        <ele>6</ele>
        <time>2014-04-08T15:12:25Z</time>
      </trkpt>
      <trkpt lat="47.12549" lon="-1.83069">
        <ele>6</ele>
        <time>2014-04-08T15:12:26Z</time>
      </trkpt>
      <trkpt lat="47.1251" lon="-1.83031">
        <ele>6</ele>
        <time>2014-04-08T15:12:32Z</time>
      </trkpt>
      <trkpt lat="47.1248" lon="-1.83004">
        <ele>4</ele>
        <time>2014-04-08T15:12:35Z</time>
      </trkpt>
      <trkpt lat="47.12447" lon="-1.82983">
        <ele>4</ele>
        <time>2014-04-08T15:12:39Z</time>
      </trkpt>
      <trkpt lat="47.1242" lon="-1.8296">
        <ele>3</ele>
        <time>2014-04-08T15:12:43Z</time>
      </trkpt>
      <trkpt lat="47.1239" lon="-1.82949">
        <ele>2</ele>
        <time>2014-04-08T15:12:47Z</time>
      </trkpt>
      <trkpt lat="47.12362" lon="-1.82926">
        <ele>4</ele>
        <time>2014-04-08T15:12:51Z</time>
      </trkpt>
      <trkpt lat="47.12333" lon="-1.82921">
        <ele>5</ele>
        <time>2014-04-08T15:12:54Z</time>
      </trkpt>
      <trkpt lat="47.12304" lon="-1.82911">
        <ele>4</ele>
        <time>2014-04-08T15:12:59Z</time>
      </trkpt>
      <trkpt lat="47.12282" lon="-1.82902">
        <ele>3</ele>
        <time>2014-04-08T15:13:01Z</time>
      </trkpt>
      <trkpt lat="47.12232" lon="-1.82882">
        <ele>1</ele>
        <time>2014-04-08T15:13:08Z</time>
      </trkpt>
      <trkpt lat="47.12214" lon="-1.8288">
        <ele>2</ele>
        <time>2014-04-08T15:13:10Z</time>
      </trkpt>
      <trkpt lat="47.12176" lon="-1.82878">
        <ele>2</ele>
        <time>2014-04-08T15:13:15Z</time>
      </trkpt>
      <trkpt lat="47.12138" lon="-1.82868">
        <ele>6</ele>
        <time>2014-04-08T15:13:21Z</time>
      </trkpt>
      <trkpt lat="47.12124" lon="-1.82862">
        <ele>3</ele>
        <time>2014-04-08T15:13:24Z</time>
      </trkpt>
      <trkpt lat="47.12091" lon="-1.82853">
        <ele>2</ele>
        <time>2014-04-08T15:13:28Z</time>
      </trkpt>
      <trkpt lat="47.12065" lon="-1.82846">
        <ele>2</ele>
        <time>2014-04-08T15:13:32Z</time>
      </trkpt>
      <trkpt lat="47.12041" lon="-1.82843">
        <ele>1</ele>
        <time>2014-04-08T15:13:36Z</time>
      </trkpt>
      <trkpt lat="47.12013" lon="-1.82843">
        <ele>13.5</ele>
        <time>2014-04-08T15:13:41Z</time>
      </trkpt>
      <trkpt lat="47.11997" lon="-1.82834">
        <ele>3</ele>
        <time>2014-04-08T15:13:46Z</time>
      </trkpt>
      <trkpt lat="47.11975" lon="-1.8283">
        <ele>6</ele>
        <time>2014-04-08T15:13:51Z</time>
      </trkpt>
      <trkpt lat="47.1196" lon="-1.82826">
        <ele>11</ele>
        <time>2014-04-08T15:13:54Z</time>
      </trkpt>
      <trkpt lat="47.11942" lon="-1.82817">
        <ele>12</ele>
        <time>2014-04-08T15:13:59Z</time>
      </trkpt>
      <trkpt lat="47.11927" lon="-1.82811">
        <ele>11</ele>
        <time>2014-04-08T15:14:01Z</time>
      </trkpt>
      <trkpt lat="47.11905" lon="-1.82805">
        <ele>13</ele>
        <time>2014-04-08T15:14:07Z</time>
      </trkpt>
      <trkpt lat="47.11895" lon="-1.828">
        <ele>13</ele>
        <time>2014-04-08T15:14:08Z</time>
      </trkpt>
      <trkpt lat="47.11871" lon="-1.82786">
        <ele>15</ele>
        <time>2014-04-08T15:14:14Z</time>
      </trkpt>
      <trkpt lat="47.11841" lon="-1.82771">
        <ele>15</ele>
        <time>2014-04-08T15:14:20Z</time>
      </trkpt>
      <trkpt lat="47.11827" lon="-1.82759">
        <ele>14</ele>
        <time>2014-04-08T15:14:22Z</time>
      </trkpt>
      <trkpt lat="47.11805" lon="-1.82747">
        <ele>16</ele>
        <time>2014-04-08T15:14:27Z</time>
      </trkpt>
      <trkpt lat="47.11789" lon="-1.82739">
        <ele>16</ele>
        <time>2014-04-08T15:14:30Z</time>
      </trkpt>
      <trkpt lat="47.1177" lon="-1.82731">
        <ele>16</ele>
        <time>2014-04-08T15:14:34Z</time>
      </trkpt>
      <trkpt lat="47.11754" lon="-1.82721">
        <ele>18</ele>
        <time>2014-04-08T15:14:38Z</time>
      </trkpt>
      <trkpt lat="47.11729" lon="-1.82707">
        <ele>19</ele>
        <time>2014-04-08T15:14:42Z</time>
      </trkpt>
      <trkpt lat="47.11703" lon="-1.8268">
        <ele>17</ele>
        <time>2014-04-08T15:14:47Z</time>
      </trkpt>
      <trkpt lat="47.11686" lon="-1.82667">
        <ele>17</ele>
        <time>2014-04-08T15:14:50Z</time>
      </trkpt>
      <trkpt lat="47.11665" lon="-1.82645">
        <ele>18</ele>
        <time>2014-04-08T15:14:55Z</time>
      </trkpt>
      <trkpt lat="47.11656" lon="-1.82636">
        <ele>17</ele>
        <time>2014-04-08T15:14:56Z</time>
      </trkpt>
      <trkpt lat="47.11625" lon="-1.82612">
        <ele>18</ele>
        <time>2014-04-08T15:15:02Z</time>
      </trkpt>
      <trkpt lat="47.11601" lon="-1.82584">
        <ele>18</ele>
        <time>2014-04-08T15:15:08Z</time>
      </trkpt>
      <trkpt lat="47.11585" lon="-1.82571">
        <ele>18</ele>
        <time>2014-04-08T15:15:09Z</time>
      </trkpt>
      <trkpt lat="47.1155" lon="-1.82532">
        <ele>17</ele>
        <time>2014-04-08T15:15:16Z</time>
      </trkpt>
      <trkpt lat="47.11525" lon="-1.82505">
        <ele>17</ele>
        <time>2014-04-08T15:15:19Z</time>
      </trkpt>
      <trkpt lat="47.11516" lon="-1.82493">
        <ele>17</ele>
        <time>2014-04-08T15:15:22Z</time>
      </trkpt>
      <trkpt lat="47.11478" lon="-1.82457">
        <ele>17</ele>
        <time>2014-04-08T15:15:27Z</time>
      </trkpt>
      <trkpt lat="47.11453" lon="-1.82424">
        <ele>19</ele>
        <time>2014-04-08T15:15:32Z</time>
      </trkpt>
      <trkpt lat="47.11434" lon="-1.82395">
        <ele>20</ele>
        <time>2014-04-08T15:15:35Z</time>
      </trkpt>
      <trkpt lat="47.11416" lon="-1.82372">
        <ele>21</ele>
        <time>2014-04-08T15:15:37Z</time>
      </trkpt>
      <trkpt lat="47.11382" lon="-1.82328">
        <ele>19</ele>
        <time>2014-04-08T15:15:44Z</time>
      </trkpt>
      <trkpt lat="47.11363" lon="-1.82307">
        <ele>19</ele>
        <time>2014-04-08T15:15:46Z</time>
      </trkpt>
      <trkpt lat="47.11337" lon="-1.82279">
        <ele>21</ele>
        <time>2014-04-08T15:15:50Z</time>
      </trkpt>
      <trkpt lat="47.11329" lon="-1.82263">
        <ele>22</ele>
        <time>2014-04-08T15:15:53Z</time>
      </trkpt>
      <trkpt lat="47.11306" lon="-1.822">
        <ele>20</ele>
        <time>2014-04-08T15:15:59Z</time>
      </trkpt>
      <trkpt lat="47.11293" lon="-1.82155">
        <ele>21</ele>
        <time>2014-04-08T15:16:02Z</time>
      </trkpt>
      <trkpt lat="47.11286" lon="-1.82135">
        <ele>21</ele>
        <time>2014-04-08T15:16:04Z</time>
      </trkpt>
      <trkpt lat="47.11256" lon="-1.82076">
        <ele>19</ele>
        <time>2014-04-08T15:16:11Z</time>
      </trkpt>
      <trkpt lat="47.11238" lon="-1.82025">
        <ele>17</ele>
        <time>2014-04-08T15:16:16Z</time>
      </trkpt>
      <trkpt lat="47.1122" lon="-1.81985">
        <ele>17</ele>
        <time>2014-04-08T15:16:20Z</time>
      </trkpt>
      <trkpt lat="47.11205" lon="-1.81953">
        <ele>15</ele>
        <time>2014-04-08T15:16:22Z</time>
      </trkpt>
      <trkpt lat="47.11195" lon="-1.81935">
        <ele>15</ele>
        <time>2014-04-08T15:16:24Z</time>
      </trkpt>
      <trkpt lat="47.11156" lon="-1.81879">
        <ele>14</ele>
        <time>2014-04-08T15:16:31Z</time>
      </trkpt>
      <trkpt lat="47.11135" lon="-1.81846">
        <ele>15</ele>
        <time>2014-04-08T15:16:35Z</time>
      </trkpt>
      <trkpt lat="47.11117" lon="-1.8182">
        <ele>15</ele>
        <time>2014-04-08T15:16:39Z</time>
      </trkpt>
      <trkpt lat="47.11087" lon="-1.81779">
        <ele>18</ele>
        <time>2014-04-08T15:16:44Z</time>
      </trkpt>
      <trkpt lat="47.1106" lon="-1.81737">
        <ele>18</ele>
        <time>2014-04-08T15:16:49Z</time>
      </trkpt>
      <trkpt lat="47.11041" lon="-1.817">
        <ele>17</ele>
        <time>2014-04-08T15:16:53Z</time>
      </trkpt>
      <trkpt lat="47.11026" lon="-1.81674">
        <ele>17</ele>
        <time>2014-04-08T15:16:56Z</time>
      </trkpt>
      <trkpt lat="47.10993" lon="-1.81634">
        <ele>16</ele>
        <time>2014-04-08T15:17:01Z</time>
      </trkpt>
      <trkpt lat="47.10971" lon="-1.81609">
        <ele>15</ele>
        <time>2014-04-08T15:17:03Z</time>
      </trkpt>
      <trkpt lat="47.10942" lon="-1.81581">
        <ele>14</ele>
        <time>2014-04-08T15:17:08Z</time>
      </trkpt>
      <trkpt lat="47.10907" lon="-1.8155">
        <ele>15</ele>
        <time>2014-04-08T15:17:12Z</time>
      </trkpt>
      <trkpt lat="47.10879" lon="-1.81528">
        <ele>14</ele>
        <time>2014-04-08T15:17:16Z</time>
      </trkpt>
      <trkpt lat="47.10854" lon="-1.81518">
        <ele>13</ele>
        <time>2014-04-08T15:17:20Z</time>
      </trkpt>
      <trkpt lat="47.10838" lon="-1.8151">
        <ele>14</ele>
        <time>2014-04-08T15:17:21Z</time>
      </trkpt>
      <trkpt lat="47.10806" lon="-1.81493">
        <ele>12</ele>
        <time>2014-04-08T15:17:26Z</time>
      </trkpt>
      <trkpt lat="47.10759" lon="-1.81475">
        <ele>10</ele>
        <time>2014-04-08T15:17:31Z</time>
      </trkpt>
      <trkpt lat="47.10727" lon="-1.81457">
        <ele>9</ele>
        <time>2014-04-08T15:17:35Z</time>
      </trkpt>
      <trkpt lat="47.10709" lon="-1.81445">
        <ele>9</ele>
        <time>2014-04-08T15:17:38Z</time>
      </trkpt>
      <trkpt lat="47.1067" lon="-1.81389">
        <ele>7</ele>
        <time>2014-04-08T15:17:44Z</time>
      </trkpt>
      <trkpt lat="47.10643" lon="-1.81359">
        <ele>9</ele>
        <time>2014-04-08T15:17:49Z</time>
      </trkpt>
      <trkpt lat="47.10625" lon="-1.8133">
        <ele>11</ele>
        <time>2014-04-08T15:17:52Z</time>
      </trkpt>
      <trkpt lat="47.106" lon="-1.81304">
        <ele>14</ele>
        <time>2014-04-08T15:17:56Z</time>
      </trkpt>
      <trkpt lat="47.1058" lon="-1.81287">
        <ele>14</ele>
        <time>2014-04-08T15:17:58Z</time>
      </trkpt>
      <trkpt lat="47.10545" lon="-1.81259">
        <ele>15</ele>
        <time>2014-04-08T15:18:05Z</time>
      </trkpt>
      <trkpt lat="47.10531" lon="-1.81252">
        <ele>16</ele>
        <time>2014-04-08T15:18:08Z</time>
      </trkpt>
      <trkpt lat="47.10522" lon="-1.81244">
        <ele>15</ele>
        <time>2014-04-08T15:18:10Z</time>
      </trkpt>
      <trkpt lat="47.10501" lon="-1.81223">
        <ele>13</ele>
        <time>2014-04-08T15:18:16Z</time>
      </trkpt>
      <trkpt lat="47.10493" lon="-1.81218">
        <ele>13</ele>
        <time>2014-04-08T15:18:19Z</time>
      </trkpt>
      <trkpt lat="47.10476" lon="-1.81204">
        <ele>16</ele>
        <time>2014-04-08T15:18:25Z</time>
      </trkpt>
      <trkpt lat="47.10457" lon="-1.8119">
        <ele>15</ele>
        <time>2014-04-08T15:18:34Z</time>
      </trkpt>
      <trkpt lat="47.10432" lon="-1.81175">
        <ele>14</ele>
        <time>2014-04-08T15:18:39Z</time>
      </trkpt>
      <trkpt lat="47.10423" lon="-1.81163">
        <ele>14</ele>
        <time>2014-04-08T15:18:40Z</time>
      </trkpt>
      <trkpt lat="47.10405" lon="-1.81163">
        <ele>13</ele>
        <time>2014-04-08T15:18:44Z</time>
      </trkpt>
      <trkpt lat="47.10383" lon="-1.81182">
        <ele>14</ele>
        <time>2014-04-08T15:18:48Z</time>
      </trkpt>
      <trkpt lat="47.10362" lon="-1.81201">
        <ele>16</ele>
        <time>2014-04-08T15:18:53Z</time>
      </trkpt>
      <trkpt lat="47.10349" lon="-1.81234">
        <ele>17</ele>
        <time>2014-04-08T15:18:57Z</time>
      </trkpt>
      <trkpt lat="47.10335" lon="-1.81259">
        <ele>18</ele>
        <time>2014-04-08T15:19:00Z</time>
      </trkpt>
      <trkpt lat="47.10304" lon="-1.81331">
        <ele>19</ele>
        <time>2014-04-08T15:19:07Z</time>
      </trkpt>
      <trkpt lat="47.10298" lon="-1.8135">
        <ele>20</ele>
        <time>2014-04-08T15:19:09Z</time>
      </trkpt>
      <trkpt lat="47.10272" lon="-1.81413">
        <ele>16</ele>
        <time>2014-04-08T15:19:14Z</time>
      </trkpt>
      <trkpt lat="47.10266" lon="-1.81434">
        <ele>16</ele>
        <time>2014-04-08T15:19:16Z</time>
      </trkpt>
      <trkpt lat="47.10262" lon="-1.81488">
        <ele>14</ele>
        <time>2014-04-08T15:19:21Z</time>
      </trkpt>
      <trkpt lat="47.10254" lon="-1.81528">
        <ele>12</ele>
        <time>2014-04-08T15:19:27Z</time>
      </trkpt>
      <trkpt lat="47.10227" lon="-1.81527">
        <ele>13</ele>
        <time>2014-04-08T15:19:30Z</time>
      </trkpt>
      <trkpt lat="47.10214" lon="-1.81526">
        <ele>13</ele>
        <time>2014-04-08T15:19:32Z</time>
      </trkpt>
      <trkpt lat="47.10165" lon="-1.81553">
        <ele>13</ele>
        <time>2014-04-08T15:19:39Z</time>
      </trkpt>
      <trkpt lat="47.10146" lon="-1.81567">
        <ele>15</ele>
        <time>2014-04-08T15:19:43Z</time>
      </trkpt>
      <trkpt lat="47.10119" lon="-1.81577">
        <ele>13</ele>
        <time>2014-04-08T15:19:47Z</time>
      </trkpt>
      <trkpt lat="47.10092" lon="-1.81597">
        <ele>15</ele>
        <time>2014-04-08T15:19:51Z</time>
      </trkpt>
      <trkpt lat="47.10069" lon="-1.81615">
        <ele>11</ele>
        <time>2014-04-08T15:19:55Z</time>
      </trkpt>
      <trkpt lat="47.10042" lon="-1.81637">
        <ele>11</ele>
        <time>2014-04-08T15:20:00Z</time>
      </trkpt>
      <trkpt lat="47.10027" lon="-1.8165">
        <ele>14</ele>
        <time>2014-04-08T15:20:02Z</time>
      </trkpt>
      <trkpt lat="47.1001" lon="-1.81671">
        <ele>14</ele>
        <time>2014-04-08T15:20:06Z</time>
      </trkpt>
      <trkpt lat="47.09989" lon="-1.81695">
        <ele>14</ele>
        <time>2014-04-08T15:20:11Z</time>
      </trkpt>
      <trkpt lat="47.09976" lon="-1.81707">
        <ele>14</ele>
        <time>2014-04-08T15:20:15Z</time>
      </trkpt>
      <trkpt lat="47.09955" lon="-1.81728">
        <ele>15</ele>
        <time>2014-04-08T15:20:19Z</time>
      </trkpt>
      <trkpt lat="47.09945" lon="-1.81736">
        <ele>16</ele>
        <time>2014-04-08T15:20:22Z</time>
      </trkpt>
      <trkpt lat="47.09922" lon="-1.8176">
        <ele>15</ele>
        <time>2014-04-08T15:20:27Z</time>
      </trkpt>
      <trkpt lat="47.09905" lon="-1.8178">
        <ele>18</ele>
        <time>2014-04-08T15:20:31Z</time>
      </trkpt>
      <trkpt lat="47.09884" lon="-1.81803">
        <ele>17</ele>
        <time>2014-04-08T15:20:34Z</time>
      </trkpt>
      <trkpt lat="47.09868" lon="-1.81821">
        <ele>17</ele>
        <time>2014-04-08T15:20:38Z</time>
      </trkpt>
      <trkpt lat="47.09842" lon="-1.81822">
        <ele>19</ele>
        <time>2014-04-08T15:20:43Z</time>
      </trkpt>
      <trkpt lat="47.09831" lon="-1.81817">
        <ele>19</ele>
        <time>2014-04-08T15:20:46Z</time>
      </trkpt>
      <trkpt lat="47.0981" lon="-1.81818">
        <ele>18</ele>
        <time>2014-04-08T15:20:52Z</time>
      </trkpt>
      <trkpt lat="47.0981" lon="-1.81798">
        <ele>18</ele>
        <time>2014-04-08T15:20:55Z</time>
      </trkpt>
      <trkpt lat="47.09811" lon="-1.81792">
        <ele>18</ele>
        <time>2014-04-08T15:20:56Z</time>
      </trkpt>
      <trkpt lat="47.09831" lon="-1.81763">
        <ele>21</ele>
        <time>2014-04-08T15:21:02Z</time>
      </trkpt>
      <trkpt lat="47.09848" lon="-1.81732">
        <ele>22</ele>
        <time>2014-04-08T15:21:06Z</time>
      </trkpt>
      <trkpt lat="47.0986" lon="-1.81703">
        <ele>21</ele>
        <time>2014-04-08T15:21:10Z</time>
      </trkpt>
      <trkpt lat="47.09874" lon="-1.81675">
        <ele>19</ele>
        <time>2014-04-08T15:21:13Z</time>
      </trkpt>
      <trkpt lat="47.09898" lon="-1.81606">
        <ele>19</ele>
        <time>2014-04-08T15:21:19Z</time>
      </trkpt>
      <trkpt lat="47.09914" lon="-1.81566">
        <ele>18</ele>
        <time>2014-04-08T15:21:23Z</time>
      </trkpt>
      <trkpt lat="47.09926" lon="-1.81534">
        <ele>17</ele>
        <time>2014-04-08T15:21:27Z</time>
      </trkpt>
      <trkpt lat="47.09945" lon="-1.815">
        <ele>17</ele>
        <time>2014-04-08T15:21:30Z</time>
      </trkpt>
      <trkpt lat="47.0997" lon="-1.81469">
        <ele>15</ele>
        <time>2014-04-08T15:21:35Z</time>
      </trkpt>
      <trkpt lat="47.09991" lon="-1.81437">
        <ele>15</ele>
        <time>2014-04-08T15:21:38Z</time>
      </trkpt>
      <trkpt lat="47.10015" lon="-1.81406">
        <ele>15</ele>
        <time>2014-04-08T15:21:42Z</time>
      </trkpt>
      <trkpt lat="47.10027" lon="-1.81385">
        <ele>14</ele>
        <time>2014-04-08T15:21:45Z</time>
      </trkpt>
      <trkpt lat="47.1006" lon="-1.81337">
        <ele>11</ele>
        <time>2014-04-08T15:21:51Z</time>
      </trkpt>
      <trkpt lat="47.10069" lon="-1.81322">
        <ele>11</ele>
        <time>2014-04-08T15:21:52Z</time>
      </trkpt>
      <trkpt lat="47.10111" lon="-1.81278">
        <ele>9</ele>
        <time>2014-04-08T15:21:59Z</time>
      </trkpt>
      <trkpt lat="47.10136" lon="-1.81255">
        <ele>9</ele>
        <time>2014-04-08T15:22:02Z</time>
      </trkpt>
      <trkpt lat="47.10152" lon="-1.8124">
        <ele>10</ele>
        <time>2014-04-08T15:22:05Z</time>
      </trkpt>
      <trkpt lat="47.10189" lon="-1.81212">
        <ele>12</ele>
        <time>2014-04-08T15:22:10Z</time>
      </trkpt>
      <trkpt lat="47.10216" lon="-1.81195">
        <ele>10</ele>
        <time>2014-04-08T15:22:14Z</time>
      </trkpt>
      <trkpt lat="47.10239" lon="-1.81169">
        <ele>10</ele>
        <time>2014-04-08T15:22:19Z</time>
      </trkpt>
      <trkpt lat="47.10261" lon="-1.81147">
        <ele>11</ele>
        <time>2014-04-08T15:22:23Z</time>
      </trkpt>
      <trkpt lat="47.10285" lon="-1.81129">
        <ele>13</ele>
        <time>2014-04-08T15:22:27Z</time>
      </trkpt>
      <trkpt lat="47.10308" lon="-1.81108">
        <ele>13</ele>
        <time>2014-04-08T15:22:31Z</time>
      </trkpt>
      <trkpt lat="47.10316" lon="-1.81096">
        <ele>13</ele>
        <time>2014-04-08T15:22:32Z</time>
      </trkpt>
      <trkpt lat="47.10351" lon="-1.81052">
        <ele>12</ele>
        <time>2014-04-08T15:22:40Z</time>
      </trkpt>
      <trkpt lat="47.10368" lon="-1.81012">
        <ele>17</ele>
        <time>2014-04-08T15:22:45Z</time>
      </trkpt>
      <trkpt lat="47.10371" lon="-1.8098">
        <ele>17</ele>
        <time>2014-04-08T15:22:48Z</time>
      </trkpt>
      <trkpt lat="47.10368" lon="-1.80961">
        <ele>16</ele>
        <time>2014-04-08T15:22:50Z</time>
      </trkpt>
      <trkpt lat="47.10357" lon="-1.80893">
        <ele>13</ele>
        <time>2014-04-08T15:22:55Z</time>
      </trkpt>
      <trkpt lat="47.10356" lon="-1.80844">
        <ele>13</ele>
        <time>2014-04-08T15:22:59Z</time>
      </trkpt>
      <trkpt lat="47.10357" lon="-1.80793">
        <ele>13</ele>
        <time>2014-04-08T15:23:04Z</time>
      </trkpt>
      <trkpt lat="47.10356" lon="-1.80766">
        <ele>12</ele>
        <time>2014-04-08T15:23:05Z</time>
      </trkpt>
      <trkpt lat="47.10352" lon="-1.80693">
        <ele>13</ele>
        <time>2014-04-08T15:23:13Z</time>
      </trkpt>
      <trkpt lat="47.1035" lon="-1.80662">
        <ele>14</ele>
        <time>2014-04-08T15:23:16Z</time>
      </trkpt>
      <trkpt lat="47.10348" lon="-1.80633">
        <ele>16</ele>
        <time>2014-04-08T15:23:18Z</time>
      </trkpt>
      <trkpt lat="47.1035" lon="-1.80585">
        <ele>19</ele>
        <time>2014-04-08T15:23:23Z</time>
      </trkpt>
      <trkpt lat="47.10347" lon="-1.80549">
        <ele>18</ele>
        <time>2014-04-08T15:23:27Z</time>
      </trkpt>
      <trkpt lat="47.10343" lon="-1.80503">
        <ele>18</ele>
        <time>2014-04-08T15:23:32Z</time>
      </trkpt>
      <trkpt lat="47.1034" lon="-1.80462">
        <ele>16</ele>
        <time>2014-04-08T15:23:36Z</time>
      </trkpt>
      <trkpt lat="47.10338" lon="-1.80441">
        <ele>16</ele>
        <time>2014-04-08T15:23:38Z</time>
      </trkpt>
      <trkpt lat="47.10328" lon="-1.80391">
        <ele>15</ele>
        <time>2014-04-08T15:23:44Z</time>
      </trkpt>
      <trkpt lat="47.10328" lon="-1.80383">
        <ele>16</ele>
        <time>2014-04-08T15:23:45Z</time>
      </trkpt>
      <trkpt lat="47.10321" lon="-1.80349">
        <ele>17</ele>
        <time>2014-04-08T15:23:50Z</time>
      </trkpt>
      <trkpt lat="47.10319" lon="-1.80291">
        <ele>18</ele>
        <time>2014-04-08T15:23:55Z</time>
      </trkpt>
      <trkpt lat="47.10317" lon="-1.80239">
        <ele>20</ele>
        <time>2014-04-08T15:24:00Z</time>
      </trkpt>
      <trkpt lat="47.10319" lon="-1.8021">
        <ele>19</ele>
        <time>2014-04-08T15:24:03Z</time>
      </trkpt>
      <trkpt lat="47.10318" lon="-1.80172">
        <ele>22</ele>
        <time>2014-04-08T15:24:07Z</time>
      </trkpt>
      <trkpt lat="47.10315" lon="-1.80127">
        <ele>23</ele>
        <time>2014-04-08T15:24:12Z</time>
      </trkpt>
      <trkpt lat="47.10313" lon="-1.80081">
        <ele>22</ele>
        <time>2014-04-08T15:24:15Z</time>
      </trkpt>
      <trkpt lat="47.10315" lon="-1.80024">
        <ele>21</ele>
        <time>2014-04-08T15:24:20Z</time>
      </trkpt>
      <trkpt lat="47.10316" lon="-1.79985">
        <ele>21</ele>
        <time>2014-04-08T15:24:24Z</time>
      </trkpt>
      <trkpt lat="47.10322" lon="-1.79947">
        <ele>22</ele>
        <time>2014-04-08T15:24:27Z</time>
      </trkpt>
      <trkpt lat="47.1034" lon="-1.79865">
        <ele>21</ele>
        <time>2014-04-08T15:24:32Z</time>
      </trkpt>
      <trkpt lat="47.10353" lon="-1.79796">
        <ele>21</ele>
        <time>2014-04-08T15:24:37Z</time>
      </trkpt>
      <trkpt lat="47.10359" lon="-1.79761">
        <ele>21</ele>
        <time>2014-04-08T15:24:41Z</time>
      </trkpt>
      <trkpt lat="47.10367" lon="-1.79708">
        <ele>21</ele>
        <time>2014-04-08T15:24:44Z</time>
      </trkpt>
      <trkpt lat="47.10374" lon="-1.79651">
        <ele>20</ele>
        <time>2014-04-08T15:24:48Z</time>
      </trkpt>
      <trkpt lat="47.1038" lon="-1.79598">
        <ele>21</ele>
        <time>2014-04-08T15:24:52Z</time>
      </trkpt>
      <trkpt lat="47.10384" lon="-1.79543">
        <ele>20</ele>
        <time>2014-04-08T15:24:56Z</time>
      </trkpt>
      <trkpt lat="47.10391" lon="-1.7949">
        <ele>21</ele>
        <time>2014-04-08T15:25:01Z</time>
      </trkpt>
      <trkpt lat="47.104" lon="-1.79441">
        <ele>19</ele>
        <time>2014-04-08T15:25:05Z</time>
      </trkpt>
      <trkpt lat="47.10416" lon="-1.7939">
        <ele>19</ele>
        <time>2014-04-08T15:25:09Z</time>
      </trkpt>
      <trkpt lat="47.10435" lon="-1.79338">
        <ele>17</ele>
        <time>2014-04-08T15:25:13Z</time>
      </trkpt>
      <trkpt lat="47.10455" lon="-1.79283">
        <ele>14</ele>
        <time>2014-04-08T15:25:16Z</time>
      </trkpt>
      <trkpt lat="47.10469" lon="-1.79242">
        <ele>13</ele>
        <time>2014-04-08T15:25:19Z</time>
      </trkpt>
      <trkpt lat="47.10487" lon="-1.79185">
        <ele>13</ele>
        <time>2014-04-08T15:25:24Z</time>
      </trkpt>
      <trkpt lat="47.10517" lon="-1.79117">
        <ele>10</ele>
        <time>2014-04-08T15:25:28Z</time>
      </trkpt>
      <trkpt lat="47.10538" lon="-1.79063">
        <ele>9</ele>
        <time>2014-04-08T15:25:32Z</time>
      </trkpt>
      <trkpt lat="47.10551" lon="-1.79039">
        <ele>9</ele>
        <time>2014-04-08T15:25:34Z</time>
      </trkpt>
      <trkpt lat="47.10607" lon="-1.78978">
        <ele>9</ele>
        <time>2014-04-08T15:25:41Z</time>
      </trkpt>
      <trkpt lat="47.10615" lon="-1.7897">
        <ele>9</ele>
        <time>2014-04-08T15:25:42Z</time>
      </trkpt>
      <trkpt lat="47.10656" lon="-1.78925">
        <ele>13</ele>
        <time>2014-04-08T15:25:49Z</time>
      </trkpt>
      <trkpt lat="47.10681" lon="-1.78895">
        <ele>13</ele>
        <time>2014-04-08T15:25:52Z</time>
      </trkpt>
      <trkpt lat="47.10705" lon="-1.78863">
        <ele>16</ele>
        <time>2014-04-08T15:25:56Z</time>
      </trkpt>
      <trkpt lat="47.1073" lon="-1.78832">
        <ele>13</ele>
        <time>2014-04-08T15:26:00Z</time>
      </trkpt>
      <trkpt lat="47.10746" lon="-1.78814">
        <ele>12</ele>
        <time>2014-04-08T15:26:02Z</time>
      </trkpt>
      <trkpt lat="47.1079" lon="-1.78768">
        <ele>10</ele>
        <time>2014-04-08T15:26:09Z</time>
      </trkpt>
      <trkpt lat="47.10815" lon="-1.78745">
        <ele>8</ele>
        <time>2014-04-08T15:26:11Z</time>
      </trkpt>
      <trkpt lat="47.10853" lon="-1.78702">
        <ele>8</ele>
        <time>2014-04-08T15:26:16Z</time>
      </trkpt>
      <trkpt lat="47.10883" lon="-1.78669">
        <ele>9</ele>
        <time>2014-04-08T15:26:20Z</time>
      </trkpt>
      <trkpt lat="47.10896" lon="-1.78651">
        <ele>9</ele>
        <time>2014-04-08T15:26:22Z</time>
      </trkpt>
      <trkpt lat="47.10937" lon="-1.78599">
        <ele>7</ele>
        <time>2014-04-08T15:26:29Z</time>
      </trkpt>
      <trkpt lat="47.10948" lon="-1.7858">
        <ele>7</ele>
        <time>2014-04-08T15:26:30Z</time>
      </trkpt>
      <trkpt lat="47.1098" lon="-1.78515">
        <ele>3</ele>
        <time>2014-04-08T15:26:37Z</time>
      </trkpt>
      <trkpt lat="47.11002" lon="-1.78454">
        <ele>5</ele>
        <time>2014-04-08T15:26:42Z</time>
      </trkpt>
      <trkpt lat="47.1101" lon="-1.78434">
        <ele>7</ele>
        <time>2014-04-08T15:26:45Z</time>
      </trkpt>
      <trkpt lat="47.11025" lon="-1.78383">
        <ele>12</ele>
        <time>2014-04-08T15:26:50Z</time>
      </trkpt>
      <trkpt lat="47.11037" lon="-1.78337">
        <ele>12</ele>
        <time>2014-04-08T15:26:55Z</time>
      </trkpt>
      <trkpt lat="47.11044" lon="-1.78308">
        <ele>13</ele>
        <time>2014-04-08T15:26:58Z</time>
      </trkpt>
      <trkpt lat="47.11054" lon="-1.78265">
        <ele>15</ele>
        <time>2014-04-08T15:27:02Z</time>
      </trkpt>
      <trkpt lat="47.11067" lon="-1.78229">
        <ele>16</ele>
        <time>2014-04-08T15:27:07Z</time>
      </trkpt>
      <trkpt lat="47.11076" lon="-1.782">
        <ele>16</ele>
        <time>2014-04-08T15:27:09Z</time>
      </trkpt>
      <trkpt lat="47.11084" lon="-1.7818">
        <ele>16</ele>
        <time>2014-04-08T15:27:12Z</time>
      </trkpt>
      <trkpt lat="47.1111" lon="-1.78127">
        <ele>16</ele>
        <time>2014-04-08T15:27:17Z</time>
      </trkpt>
      <trkpt lat="47.11131" lon="-1.7809">
        <ele>16</ele>
        <time>2014-04-08T15:27:21Z</time>
      </trkpt>
      <trkpt lat="47.1115" lon="-1.78057">
        <ele>18</ele>
        <time>2014-04-08T15:27:25Z</time>
      </trkpt>
      <trkpt lat="47.11171" lon="-1.78025">
        <ele>18</ele>
        <time>2014-04-08T15:27:29Z</time>
      </trkpt>
      <trkpt lat="47.11194" lon="-1.77995">
        <ele>17</ele>
        <time>2014-04-08T15:27:34Z</time>
      </trkpt>
      <trkpt lat="47.11206" lon="-1.77979">
        <ele>19</ele>
        <time>2014-04-08T15:27:35Z</time>
      </trkpt>
      <trkpt lat="47.11244" lon="-1.77927">
        <ele>20</ele>
        <time>2014-04-08T15:27:42Z</time>
      </trkpt>
      <trkpt lat="47.11267" lon="-1.77898">
        <ele>20</ele>
        <time>2014-04-08T15:27:46Z</time>
      </trkpt>
      <trkpt lat="47.11288" lon="-1.77869">
        <ele>22</ele>
        <time>2014-04-08T15:27:50Z</time>
      </trkpt>
      <trkpt lat="47.11312" lon="-1.77837">
        <ele>21</ele>
        <time>2014-04-08T15:27:53Z</time>
      </trkpt>
      <trkpt lat="47.11332" lon="-1.77804">
        <ele>21</ele>
        <time>2014-04-08T15:27:57Z</time>
      </trkpt>
      <trkpt lat="47.11359" lon="-1.77759">
        <ele>21</ele>
        <time>2014-04-08T15:28:02Z</time>
      </trkpt>
      <trkpt lat="47.11371" lon="-1.77732">
        <ele>22</ele>
        <time>2014-04-08T15:28:06Z</time>
      </trkpt>
      <trkpt lat="47.11384" lon="-1.77704">
        <ele>23</ele>
        <time>2014-04-08T15:28:09Z</time>
      </trkpt>
      <trkpt lat="47.1141" lon="-1.77658">
        <ele>21</ele>
        <time>2014-04-08T15:28:13Z</time>
      </trkpt>
      <trkpt lat="47.11432" lon="-1.77612">
        <ele>20</ele>
        <time>2014-04-08T15:28:18Z</time>
      </trkpt>
      <trkpt lat="47.11436" lon="-1.77607">
        <ele>20</ele>
        <time>2014-04-08T15:28:19Z</time>
      </trkpt>
      <trkpt lat="47.11468" lon="-1.77531">
        <ele>18</ele>
        <time>2014-04-08T15:28:28Z</time>
      </trkpt>
      <trkpt lat="47.11479" lon="-1.77507">
        <ele>20</ele>
        <time>2014-04-08T15:28:31Z</time>
      </trkpt>
      <trkpt lat="47.11491" lon="-1.7748">
        <ele>20</ele>
        <time>2014-04-08T15:28:33Z</time>
      </trkpt>
      <trkpt lat="47.1151" lon="-1.7744">
        <ele>19</ele>
        <time>2014-04-08T15:28:38Z</time>
      </trkpt>
      <trkpt lat="47.11524" lon="-1.77399">
        <ele>17</ele>
        <time>2014-04-08T15:28:42Z</time>
      </trkpt>
      <trkpt lat="47.11537" lon="-1.77357">
        <ele>18</ele>
        <time>2014-04-08T15:28:47Z</time>
      </trkpt>
      <trkpt lat="47.11549" lon="-1.77325">
        <ele>19</ele>
        <time>2014-04-08T15:28:50Z</time>
      </trkpt>
      <trkpt lat="47.11566" lon="-1.77266">
        <ele>18</ele>
        <time>2014-04-08T15:28:54Z</time>
      </trkpt>
      <trkpt lat="47.11586" lon="-1.77209">
        <ele>16</ele>
        <time>2014-04-08T15:28:59Z</time>
      </trkpt>
      <trkpt lat="47.11597" lon="-1.77171">
        <ele>14</ele>
        <time>2014-04-08T15:29:02Z</time>
      </trkpt>
      <trkpt lat="47.11612" lon="-1.77122">
        <ele>12</ele>
        <time>2014-04-08T15:29:07Z</time>
      </trkpt>
      <trkpt lat="47.11633" lon="-1.77056">
        <ele>12</ele>
        <time>2014-04-08T15:29:12Z</time>
      </trkpt>
      <trkpt lat="47.11647" lon="-1.77018">
        <ele>13</ele>
        <time>2014-04-08T15:29:14Z</time>
      </trkpt>
      <trkpt lat="47.11666" lon="-1.7697">
        <ele>13</ele>
        <time>2014-04-08T15:29:19Z</time>
      </trkpt>
      <trkpt lat="47.11686" lon="-1.76929">
        <ele>16</ele>
        <time>2014-04-08T15:29:22Z</time>
      </trkpt>
      <trkpt lat="47.11716" lon="-1.76873">
        <ele>17</ele>
        <time>2014-04-08T15:29:27Z</time>
      </trkpt>
      <trkpt lat="47.11737" lon="-1.76844">
        <ele>17</ele>
        <time>2014-04-08T15:29:31Z</time>
      </trkpt>
      <trkpt lat="47.11772" lon="-1.76799">
        <ele>18</ele>
        <time>2014-04-08T15:29:35Z</time>
      </trkpt>
      <trkpt lat="47.11793" lon="-1.76774">
        <ele>18</ele>
        <time>2014-04-08T15:29:39Z</time>
      </trkpt>
      <trkpt lat="47.11815" lon="-1.76749">
        <ele>19</ele>
        <time>2014-04-08T15:29:42Z</time>
      </trkpt>
      <trkpt lat="47.11836" lon="-1.76728">
        <ele>19</ele>
        <time>2014-04-08T15:29:44Z</time>
      </trkpt>
      <trkpt lat="47.11874" lon="-1.76686">
        <ele>20</ele>
        <time>2014-04-08T15:29:51Z</time>
      </trkpt>
      <trkpt lat="47.11904" lon="-1.76655">
        <ele>21</ele>
        <time>2014-04-08T15:29:56Z</time>
      </trkpt>
      <trkpt lat="47.11922" lon="-1.76637">
        <ele>21</ele>
        <time>2014-04-08T15:29:58Z</time>
      </trkpt>
      <trkpt lat="47.11946" lon="-1.76615">
        <ele>22</ele>
        <time>2014-04-08T15:30:02Z</time>
      </trkpt>
      <trkpt lat="47.11969" lon="-1.76593">
        <ele>22</ele>
        <time>2014-04-08T15:30:06Z</time>
      </trkpt>
      <trkpt lat="47.11992" lon="-1.76576">
        <ele>23</ele>
        <time>2014-04-08T15:30:11Z</time>
      </trkpt>
      <trkpt lat="47.1201" lon="-1.7656">
        <ele>23</ele>
        <time>2014-04-08T15:30:14Z</time>
      </trkpt>
      <trkpt lat="47.12036" lon="-1.76539">
        <ele>21</ele>
        <time>2014-04-08T15:30:17Z</time>
      </trkpt>
      <trkpt lat="47.12068" lon="-1.76516">
        <ele>23</ele>
        <time>2014-04-08T15:30:23Z</time>
      </trkpt>
      <trkpt lat="47.12098" lon="-1.76499">
        <ele>23</ele>
        <time>2014-04-08T15:30:26Z</time>
      </trkpt>
      <trkpt lat="47.12126" lon="-1.76485">
        <ele>24</ele>
        <time>2014-04-08T15:30:30Z</time>
      </trkpt>
      <trkpt lat="47.12156" lon="-1.76473">
        <ele>23</ele>
        <time>2014-04-08T15:30:35Z</time>
      </trkpt>
      <trkpt lat="47.12186" lon="-1.76461">
        <ele>24</ele>
        <time>2014-04-08T15:30:39Z</time>
      </trkpt>
      <trkpt lat="47.12215" lon="-1.7645">
        <ele>23</ele>
        <time>2014-04-08T15:30:43Z</time>
      </trkpt>
      <trkpt lat="47.12242" lon="-1.76438">
        <ele>24</ele>
        <time>2014-04-08T15:30:47Z</time>
      </trkpt>
      <trkpt lat="47.1227" lon="-1.76429">
        <ele>25</ele>
        <time>2014-04-08T15:30:51Z</time>
      </trkpt>
      <trkpt lat="47.12301" lon="-1.7642">
        <ele>27</ele>
        <time>2014-04-08T15:30:56Z</time>
      </trkpt>
      <trkpt lat="47.12309" lon="-1.76418">
        <ele>27</ele>
        <time>2014-04-08T15:30:57Z</time>
      </trkpt>
      <trkpt lat="47.12356" lon="-1.76394">
        <ele>27</ele>
        <time>2014-04-08T15:31:03Z</time>
      </trkpt>
      <trkpt lat="47.12373" lon="-1.76388">
        <ele>26</ele>
        <time>2014-04-08T15:31:07Z</time>
      </trkpt>
      <trkpt lat="47.12395" lon="-1.76376">
        <ele>26</ele>
        <time>2014-04-08T15:31:11Z</time>
      </trkpt>
      <trkpt lat="47.12425" lon="-1.76361">
        <ele>28</ele>
        <time>2014-04-08T15:31:16Z</time>
      </trkpt>
      <trkpt lat="47.12459" lon="-1.76341">
        <ele>29</ele>
        <time>2014-04-08T15:31:20Z</time>
      </trkpt>
      <trkpt lat="47.12479" lon="-1.76329">
        <ele>30</ele>
        <time>2014-04-08T15:31:24Z</time>
      </trkpt>
      <trkpt lat="47.12503" lon="-1.76314">
        <ele>28</ele>
        <time>2014-04-08T15:31:27Z</time>
      </trkpt>
      <trkpt lat="47.12527" lon="-1.763">
        <ele>28</ele>
        <time>2014-04-08T15:31:32Z</time>
      </trkpt>
      <trkpt lat="47.1255" lon="-1.76289">
        <ele>29</ele>
        <time>2014-04-08T15:31:35Z</time>
      </trkpt>
      <trkpt lat="47.12575" lon="-1.76274">
        <ele>30</ele>
        <time>2014-04-08T15:31:39Z</time>
      </trkpt>
      <trkpt lat="47.12601" lon="-1.7626">
        <ele>31</ele>
        <time>2014-04-08T15:31:43Z</time>
      </trkpt>
      <trkpt lat="47.12626" lon="-1.76248">
        <ele>31</ele>
        <time>2014-04-08T15:31:47Z</time>
      </trkpt>
      <trkpt lat="47.12651" lon="-1.76232">
        <ele>31</ele>
        <time>2014-04-08T15:31:51Z</time>
      </trkpt>
      <trkpt lat="47.12675" lon="-1.76215">
        <ele>30</ele>
        <time>2014-04-08T15:31:56Z</time>
      </trkpt>
      <trkpt lat="47.12698" lon="-1.76199">
        <ele>27</ele>
        <time>2014-04-08T15:32:00Z</time>
      </trkpt>
      <trkpt lat="47.12722" lon="-1.7618">
        <ele>26</ele>
        <time>2014-04-08T15:32:04Z</time>
      </trkpt>
      <trkpt lat="47.12744" lon="-1.76157">
        <ele>26</ele>
        <time>2014-04-08T15:32:08Z</time>
      </trkpt>
      <trkpt lat="47.12765" lon="-1.76134">
        <ele>28</ele>
        <time>2014-04-08T15:32:11Z</time>
      </trkpt>
      <trkpt lat="47.12787" lon="-1.7611">
        <ele>29</ele>
        <time>2014-04-08T15:32:15Z</time>
      </trkpt>
      <trkpt lat="47.12804" lon="-1.76092">
        <ele>30</ele>
        <time>2014-04-08T15:32:19Z</time>
      </trkpt>
      <trkpt lat="47.1283" lon="-1.76061">
        <ele>29</ele>
        <time>2014-04-08T15:32:24Z</time>
      </trkpt>
      <trkpt lat="47.1285" lon="-1.76034">
        <ele>30</ele>
        <time>2014-04-08T15:32:28Z</time>
      </trkpt>
      <trkpt lat="47.12869" lon="-1.76009">
        <ele>31</ele>
        <time>2014-04-08T15:32:32Z</time>
      </trkpt>
      <trkpt lat="47.12888" lon="-1.75983">
        <ele>30</ele>
        <time>2014-04-08T15:32:36Z</time>
      </trkpt>
      <trkpt lat="47.12909" lon="-1.75954">
        <ele>30</ele>
        <time>2014-04-08T15:32:39Z</time>
      </trkpt>
      <trkpt lat="47.1293" lon="-1.75922">
        <ele>31</ele>
        <time>2014-04-08T15:32:43Z</time>
      </trkpt>
      <trkpt lat="47.12951" lon="-1.75891">
        <ele>30</ele>
        <time>2014-04-08T15:32:47Z</time>
      </trkpt>
      <trkpt lat="47.12973" lon="-1.75844">
        <ele>31</ele>
        <time>2014-04-08T15:32:52Z</time>
      </trkpt>
      <trkpt lat="47.12982" lon="-1.75815">
        <ele>30</ele>
        <time>2014-04-08T15:32:55Z</time>
      </trkpt>
      <trkpt lat="47.1301" lon="-1.75796">
        <ele>28</ele>
        <time>2014-04-08T15:32:59Z</time>
      </trkpt>
      <trkpt lat="47.13034" lon="-1.75768">
        <ele>24</ele>
        <time>2014-04-08T15:33:03Z</time>
      </trkpt>
      <trkpt lat="47.13055" lon="-1.75734">
        <ele>24</ele>
        <time>2014-04-08T15:33:08Z</time>
      </trkpt>
      <trkpt lat="47.13069" lon="-1.7569">
        <ele>25</ele>
        <time>2014-04-08T15:33:12Z</time>
      </trkpt>
      <trkpt lat="47.1308" lon="-1.75643">
        <ele>24</ele>
        <time>2014-04-08T15:33:15Z</time>
      </trkpt>
      <trkpt lat="47.13088" lon="-1.75599">
        <ele>25</ele>
        <time>2014-04-08T15:33:19Z</time>
      </trkpt>
      <trkpt lat="47.13096" lon="-1.75552">
        <ele>24</ele>
        <time>2014-04-08T15:33:23Z</time>
      </trkpt>
      <trkpt lat="47.13104" lon="-1.75502">
        <ele>24</ele>
        <time>2014-04-08T15:33:28Z</time>
      </trkpt>
      <trkpt lat="47.13099" lon="-1.75461">
        <ele>20</ele>
        <time>2014-04-08T15:33:32Z</time>
      </trkpt>
      <trkpt lat="47.13103" lon="-1.75424">
        <ele>20</ele>
        <time>2014-04-08T15:33:36Z</time>
      </trkpt>
      <trkpt lat="47.13122" lon="-1.7539">
        <ele>20</ele>
        <time>2014-04-08T15:33:40Z</time>
      </trkpt>
      <trkpt lat="47.13128" lon="-1.75364">
        <ele>20</ele>
        <time>2014-04-08T15:33:42Z</time>
      </trkpt>
      <trkpt lat="47.13138" lon="-1.75276">
        <ele>21</ele>
        <time>2014-04-08T15:33:49Z</time>
      </trkpt>
      <trkpt lat="47.13148" lon="-1.75239">
        <ele>21</ele>
        <time>2014-04-08T15:33:51Z</time>
      </trkpt>
      <trkpt lat="47.13161" lon="-1.75189">
        <ele>24</ele>
        <time>2014-04-08T15:33:56Z</time>
      </trkpt>
      <trkpt lat="47.13178" lon="-1.75144">
        <ele>26</ele>
        <time>2014-04-08T15:34:00Z</time>
      </trkpt>
      <trkpt lat="47.13202" lon="-1.75101">
        <ele>25</ele>
        <time>2014-04-08T15:34:04Z</time>
      </trkpt>
      <trkpt lat="47.13219" lon="-1.75081">
        <ele>25</ele>
        <time>2014-04-08T15:34:05Z</time>
      </trkpt>
      <trkpt lat="47.13274" lon="-1.7503">
        <ele>22</ele>
        <time>2014-04-08T15:34:13Z</time>
      </trkpt>
      <trkpt lat="47.13305" lon="-1.75006">
        <ele>21</ele>
        <time>2014-04-08T15:34:17Z</time>
      </trkpt>
      <trkpt lat="47.13332" lon="-1.74971">
        <ele>19</ele>
        <time>2014-04-08T15:34:21Z</time>
      </trkpt>
      <trkpt lat="47.13351" lon="-1.7493">
        <ele>17</ele>
        <time>2014-04-08T15:34:24Z</time>
      </trkpt>
      <trkpt lat="47.13359" lon="-1.74908">
        <ele>17</ele>
        <time>2014-04-08T15:34:27Z</time>
      </trkpt>
      <trkpt lat="47.13386" lon="-1.74829">
        <ele>15</ele>
        <time>2014-04-08T15:34:33Z</time>
      </trkpt>
      <trkpt lat="47.13393" lon="-1.74819">
        <ele>14</ele>
        <time>2014-04-08T15:34:34Z</time>
      </trkpt>
      <trkpt lat="47.13427" lon="-1.74776">
        <ele>13</ele>
        <time>2014-04-08T15:34:41Z</time>
      </trkpt>
      <trkpt lat="47.13439" lon="-1.74761">
        <ele>11</ele>
        <time>2014-04-08T15:34:42Z</time>
      </trkpt>
      <trkpt lat="47.1348" lon="-1.74705">
        <ele>7</ele>
        <time>2014-04-08T15:34:50Z</time>
      </trkpt>
      <trkpt lat="47.13483" lon="-1.74693">
        <ele>7</ele>
        <time>2014-04-08T15:34:50Z</time>
      </trkpt>
      <trkpt lat="47.13515" lon="-1.74633">
        <ele>4</ele>
        <time>2014-04-08T15:34:55Z</time>
      </trkpt>
      <trkpt lat="47.13572" lon="-1.74579">
        <ele>4</ele>
        <time>2014-04-08T15:35:02Z</time>
      </trkpt>
      <trkpt lat="47.1358" lon="-1.7457">
        <ele>4</ele>
        <time>2014-04-08T15:35:02Z</time>
      </trkpt>
      <trkpt lat="47.13629" lon="-1.74523">
        <ele>3</ele>
        <time>2014-04-08T15:35:09Z</time>
      </trkpt>
      <trkpt lat="47.1366" lon="-1.74494">
        <ele>5</ele>
        <time>2014-04-08T15:35:13Z</time>
      </trkpt>
      <trkpt lat="47.13691" lon="-1.74454">
        <ele>4</ele>
        <time>2014-04-08T15:35:18Z</time>
      </trkpt>
      <trkpt lat="47.13703" lon="-1.74438">
        <ele>4</ele>
        <time>2014-04-08T15:35:21Z</time>
      </trkpt>
      <trkpt lat="47.13718" lon="-1.7441">
        <ele>6</ele>
        <time>2014-04-08T15:35:25Z</time>
      </trkpt>
      <trkpt lat="47.13724" lon="-1.74391">
        <ele>6</ele>
        <time>2014-04-08T15:35:27Z</time>
      </trkpt>
      <trkpt lat="47.13743" lon="-1.74345">
        <ele>6</ele>
        <time>2014-04-08T15:35:32Z</time>
      </trkpt>
      <trkpt lat="47.13758" lon="-1.74321">
        <ele>6</ele>
        <time>2014-04-08T15:35:36Z</time>
      </trkpt>
      <trkpt lat="47.1377" lon="-1.74298">
        <ele>4</ele>
        <time>2014-04-08T15:35:40Z</time>
      </trkpt>
      <trkpt lat="47.13777" lon="-1.74288">
        <ele>6</ele>
        <time>2014-04-08T15:35:43Z</time>
      </trkpt>
      <trkpt lat="47.13801" lon="-1.74251">
        <ele>10</ele>
        <time>2014-04-08T15:35:49Z</time>
      </trkpt>
      <trkpt lat="47.13803" lon="-1.74245">
        <ele>9</ele>
        <time>2014-04-08T15:35:50Z</time>
      </trkpt>
      <trkpt lat="47.13826" lon="-1.74208">
        <ele>11</ele>
        <time>2014-04-08T15:35:58Z</time>
      </trkpt>
      <trkpt lat="47.13842" lon="-1.74193">
        <ele>11</ele>
        <time>2014-04-08T15:36:02Z</time>
      </trkpt>
      <trkpt lat="47.13855" lon="-1.74181">
        <ele>11</ele>
        <time>2014-04-08T15:36:04Z</time>
      </trkpt>
      <trkpt lat="47.13867" lon="-1.74166">
        <ele>12</ele>
        <time>2014-04-08T15:36:08Z</time>
      </trkpt>
      <trkpt lat="47.13885" lon="-1.74149">
        <ele>14</ele>
        <time>2014-04-08T15:36:13Z</time>
      </trkpt>
      <trkpt lat="47.139" lon="-1.74133">
        <ele>14</ele>
        <time>2014-04-08T15:36:17Z</time>
      </trkpt>
      <trkpt lat="47.13915" lon="-1.74114">
        <ele>14</ele>
        <time>2014-04-08T15:36:20Z</time>
      </trkpt>
      <trkpt lat="47.13929" lon="-1.74091">
        <ele>16</ele>
        <time>2014-04-08T15:36:25Z</time>
      </trkpt>
      <trkpt lat="47.13946" lon="-1.74058">
        <ele>16</ele>
        <time>2014-04-08T15:36:30Z</time>
      </trkpt>
      <trkpt lat="47.13958" lon="-1.74036">
        <ele>17</ele>
        <time>2014-04-08T15:36:32Z</time>
      </trkpt>
      <trkpt lat="47.13976" lon="-1.74016">
        <ele>18</ele>
        <time>2014-04-08T15:36:36Z</time>
      </trkpt>
      <trkpt lat="47.14003" lon="-1.73991">
        <ele>18</ele>
        <time>2014-04-08T15:36:41Z</time>
      </trkpt>
      <trkpt lat="47.14009" lon="-1.73986">
        <ele>18</ele>
        <time>2014-04-08T15:36:43Z</time>
      </trkpt>
      <trkpt lat="47.14031" lon="-1.73967">
        <ele>19</ele>
        <time>2014-04-08T15:36:47Z</time>
      </trkpt>
      <trkpt lat="47.14072" lon="-1.73931">
        <ele>20</ele>
        <time>2014-04-08T15:36:54Z</time>
      </trkpt>
      <trkpt lat="47.14083" lon="-1.73918">
        <ele>20</ele>
        <time>2014-04-08T15:36:56Z</time>
      </trkpt>
      <trkpt lat="47.1412" lon="-1.73879">
        <ele>20</ele>
        <time>2014-04-08T15:37:02Z</time>
      </trkpt>
      <trkpt lat="47.14138" lon="-1.73859">
        <ele>18</ele>
        <time>2014-04-08T15:37:04Z</time>
      </trkpt>
      <trkpt lat="47.14165" lon="-1.73831">
        <ele>17</ele>
        <time>2014-04-08T15:37:08Z</time>
      </trkpt>
      <trkpt lat="47.14188" lon="-1.73808">
        <ele>19</ele>
        <time>2014-04-08T15:37:12Z</time>
      </trkpt>
      <trkpt lat="47.142" lon="-1.73799">
        <ele>20</ele>
        <time>2014-04-08T15:37:15Z</time>
      </trkpt>
      <trkpt lat="47.14251" lon="-1.73758">
        <ele>20</ele>
        <time>2014-04-08T15:37:22Z</time>
      </trkpt>
      <trkpt lat="47.14271" lon="-1.73741">
        <ele>21</ele>
        <time>2014-04-08T15:37:26Z</time>
      </trkpt>
      <trkpt lat="47.14296" lon="-1.73723">
        <ele>22</ele>
        <time>2014-04-08T15:37:29Z</time>
      </trkpt>
      <trkpt lat="47.14321" lon="-1.73703">
        <ele>23</ele>
        <time>2014-04-08T15:37:34Z</time>
      </trkpt>
      <trkpt lat="47.14344" lon="-1.73684">
        <ele>24</ele>
        <time>2014-04-08T15:37:38Z</time>
      </trkpt>
      <trkpt lat="47.14367" lon="-1.7366">
        <ele>24</ele>
        <time>2014-04-08T15:37:42Z</time>
      </trkpt>
      <trkpt lat="47.14391" lon="-1.73624">
        <ele>25</ele>
        <time>2014-04-08T15:37:46Z</time>
      </trkpt>
      <trkpt lat="47.14405" lon="-1.736">
        <ele>27</ele>
        <time>2014-04-08T15:37:50Z</time>
      </trkpt>
      <trkpt lat="47.14424" lon="-1.73564">
        <ele>28</ele>
        <time>2014-04-08T15:37:54Z</time>
      </trkpt>
      <trkpt lat="47.14443" lon="-1.73529">
        <ele>29</ele>
        <time>2014-04-08T15:37:58Z</time>
      </trkpt>
      <trkpt lat="47.14464" lon="-1.73495">
        <ele>30</ele>
        <time>2014-04-08T15:38:02Z</time>
      </trkpt>
      <trkpt lat="47.14485" lon="-1.7346">
        <ele>30</ele>
        <time>2014-04-08T15:38:05Z</time>
      </trkpt>
      <trkpt lat="47.14508" lon="-1.73431">
        <ele>30</ele>
        <time>2014-04-08T15:38:09Z</time>
      </trkpt>
      <trkpt lat="47.14529" lon="-1.734">
        <ele>29</ele>
        <time>2014-04-08T15:38:13Z</time>
      </trkpt>
      <trkpt lat="47.14556" lon="-1.73374">
        <ele>28</ele>
        <time>2014-04-08T15:38:18Z</time>
      </trkpt>
      <trkpt lat="47.14583" lon="-1.73351">
        <ele>29</ele>
        <time>2014-04-08T15:38:22Z</time>
      </trkpt>
      <trkpt lat="47.1461" lon="-1.73333">
        <ele>31</ele>
        <time>2014-04-08T15:38:26Z</time>
      </trkpt>
      <trkpt lat="47.14638" lon="-1.7331">
        <ele>31</ele>
        <time>2014-04-08T15:38:30Z</time>
      </trkpt>
      <trkpt lat="47.14661" lon="-1.73281">
        <ele>31</ele>
        <time>2014-04-08T15:38:34Z</time>
      </trkpt>
      <trkpt lat="47.14685" lon="-1.73251">
        <ele>30</ele>
        <time>2014-04-08T15:38:37Z</time>
      </trkpt>
      <trkpt lat="47.14709" lon="-1.73221">
        <ele>32</ele>
        <time>2014-04-08T15:38:41Z</time>
      </trkpt>
      <trkpt lat="47.14738" lon="-1.73199">
        <ele>31</ele>
        <time>2014-04-08T15:38:46Z</time>
      </trkpt>
      <trkpt lat="47.14766" lon="-1.73175">
        <ele>30</ele>
        <time>2014-04-08T15:38:50Z</time>
      </trkpt>
      <trkpt lat="47.148" lon="-1.73143">
        <ele>31</ele>
        <time>2014-04-08T15:38:55Z</time>
      </trkpt>
      <trkpt lat="47.1482" lon="-1.73125">
        <ele>32</ele>
        <time>2014-04-08T15:38:58Z</time>
      </trkpt>
      <trkpt lat="47.14848" lon="-1.731">
        <ele>31</ele>
        <time>2014-04-08T15:39:02Z</time>
      </trkpt>
      <trkpt lat="47.14876" lon="-1.73075">
        <ele>33</ele>
        <time>2014-04-08T15:39:06Z</time>
      </trkpt>
      <trkpt lat="47.14906" lon="-1.73048">
        <ele>33</ele>
        <time>2014-04-08T15:39:09Z</time>
      </trkpt>
      <trkpt lat="47.14936" lon="-1.73025">
        <ele>33</ele>
        <time>2014-04-08T15:39:13Z</time>
      </trkpt>
      <trkpt lat="47.14967" lon="-1.73003">
        <ele>32</ele>
        <time>2014-04-08T15:39:17Z</time>
      </trkpt>
      <trkpt lat="47.14995" lon="-1.72976">
        <ele>33</ele>
        <time>2014-04-08T15:39:22Z</time>
      </trkpt>
      <trkpt lat="47.15011" lon="-1.72969">
        <ele>33</ele>
        <time>2014-04-08T15:39:23Z</time>
      </trkpt>
      <trkpt lat="47.15077" lon="-1.72937">
        <ele>29</ele>
        <time>2014-04-08T15:39:30Z</time>
      </trkpt>
      <trkpt lat="47.151" lon="-1.72924">
        <ele>26</ele>
        <time>2014-04-08T15:39:32Z</time>
      </trkpt>
      <trkpt lat="47.15152" lon="-1.72892">
        <ele>25</ele>
        <time>2014-04-08T15:39:38Z</time>
      </trkpt>
      <trkpt lat="47.15198" lon="-1.72868">
        <ele>23</ele>
        <time>2014-04-08T15:39:41Z</time>
      </trkpt>
      <trkpt lat="47.15256" lon="-1.72836">
        <ele>25</ele>
        <time>2014-04-08T15:39:47Z</time>
      </trkpt>
      <trkpt lat="47.15306" lon="-1.72809">
        <ele>18</ele>
        <time>2014-04-08T15:39:50Z</time>
      </trkpt>
      <trkpt lat="47.1533" lon="-1.72793">
        <ele>16</ele>
        <time>2014-04-08T15:39:53Z</time>
      </trkpt>
      <trkpt lat="47.15393" lon="-1.72749">
        <ele>16</ele>
        <time>2014-04-08T15:39:59Z</time>
      </trkpt>
      <trkpt lat="47.15429" lon="-1.72722">
        <ele>18</ele>
        <time>2014-04-08T15:40:02Z</time>
      </trkpt>
      <trkpt lat="47.1546" lon="-1.72701">
        <ele>14</ele>
        <time>2014-04-08T15:40:07Z</time>
      </trkpt>
      <trkpt lat="47.15481" lon="-1.72685">
        <ele>15</ele>
        <time>2014-04-08T15:40:10Z</time>
      </trkpt>
      <trkpt lat="47.15494" lon="-1.72673">
        <ele>14</ele>
        <time>2014-04-08T15:40:11Z</time>
      </trkpt>
      <trkpt lat="47.15519" lon="-1.72648">
        <ele>15</ele>
        <time>2014-04-08T15:40:17Z</time>
      </trkpt>
      <trkpt lat="47.15536" lon="-1.7263">
        <ele>18</ele>
        <time>2014-04-08T15:40:22Z</time>
      </trkpt>
      <trkpt lat="47.15552" lon="-1.72621">
        <ele>20</ele>
        <time>2014-04-08T15:40:26Z</time>
      </trkpt>
      <trkpt lat="47.15563" lon="-1.72612">
        <ele>22</ele>
        <time>2014-04-08T15:40:30Z</time>
      </trkpt>
      <trkpt lat="47.15586" lon="-1.72598">
        <ele>26</ele>
        <time>2014-04-08T15:40:35Z</time>
      </trkpt>
      <trkpt lat="47.15602" lon="-1.72591">
        <ele>28</ele>
        <time>2014-04-08T15:40:39Z</time>
      </trkpt>
      <trkpt lat="47.15619" lon="-1.72592">
        <ele>28</ele>
        <time>2014-04-08T15:40:43Z</time>
      </trkpt>
      <trkpt lat="47.15635" lon="-1.72591">
        <ele>27</ele>
        <time>2014-04-08T15:40:47Z</time>
      </trkpt>
      <trkpt lat="47.15647" lon="-1.72587">
        <ele>25</ele>
        <time>2014-04-08T15:40:49Z</time>
      </trkpt>
      <trkpt lat="47.15673" lon="-1.7259">
        <ele>27</ele>
        <time>2014-04-08T15:40:56Z</time>
      </trkpt>
      <trkpt lat="47.15693" lon="-1.72585">
        <ele>22</ele>
        <time>2014-04-08T15:41:01Z</time>
      </trkpt>
      <trkpt lat="47.15709" lon="-1.72583">
        <ele>25</ele>
        <time>2014-04-08T15:41:03Z</time>
      </trkpt>
      <trkpt lat="47.15731" lon="-1.72581">
        <ele>25</ele>
        <time>2014-04-08T15:41:07Z</time>
      </trkpt>
      <trkpt lat="47.15754" lon="-1.72581">
        <ele>26</ele>
        <time>2014-04-08T15:41:12Z</time>
      </trkpt>
      <trkpt lat="47.15764" lon="-1.7258">
        <ele>26</ele>
        <time>2014-04-08T15:41:14Z</time>
      </trkpt>
      <trkpt lat="47.15804" lon="-1.72579">
        <ele>26</ele>
        <time>2014-04-08T15:41:20Z</time>
      </trkpt>
      <trkpt lat="47.15836" lon="-1.72572">
        <ele>25</ele>
        <time>2014-04-08T15:41:25Z</time>
      </trkpt>
      <trkpt lat="47.15849" lon="-1.72548">
        <ele>26</ele>
        <time>2014-04-08T15:41:28Z</time>
      </trkpt>
      <trkpt lat="47.15862" lon="-1.72511">
        <ele>26</ele>
        <time>2014-04-08T15:41:31Z</time>
      </trkpt>
      <trkpt lat="47.15871" lon="-1.72492">
        <ele>25</ele>
        <time>2014-04-08T15:41:34Z</time>
      </trkpt>
      <trkpt lat="47.15894" lon="-1.72419">
        <ele>24</ele>
        <time>2014-04-08T15:41:40Z</time>
      </trkpt>
      <trkpt lat="47.15914" lon="-1.72383">
        <ele>23</ele>
        <time>2014-04-08T15:41:44Z</time>
      </trkpt>
      <trkpt lat="47.15929" lon="-1.72347">
        <ele>22</ele>
        <time>2014-04-08T15:41:49Z</time>
      </trkpt>
      <trkpt lat="47.15942" lon="-1.7232">
        <ele>23</ele>
        <time>2014-04-08T15:41:52Z</time>
      </trkpt>
      <trkpt lat="47.15955" lon="-1.72293">
        <ele>26</ele>
        <time>2014-04-08T15:41:55Z</time>
      </trkpt>
      <trkpt lat="47.15976" lon="-1.72247">
        <ele>29</ele>
        <time>2014-04-08T15:42:00Z</time>
      </trkpt>
      <trkpt lat="47.15996" lon="-1.72207">
        <ele>26</ele>
        <time>2014-04-08T15:42:03Z</time>
      </trkpt>
      <trkpt lat="47.16012" lon="-1.72169">
        <ele>24</ele>
        <time>2014-04-08T15:42:07Z</time>
      </trkpt>
      <trkpt lat="47.16031" lon="-1.72131">
        <ele>23</ele>
        <time>2014-04-08T15:42:11Z</time>
      </trkpt>
      <trkpt lat="47.1605" lon="-1.72094">
        <ele>25</ele>
        <time>2014-04-08T15:42:16Z</time>
      </trkpt>
      <trkpt lat="47.16067" lon="-1.72057">
        <ele>24</ele>
        <time>2014-04-08T15:42:20Z</time>
      </trkpt>
      <trkpt lat="47.16081" lon="-1.72029">
        <ele>26</ele>
        <time>2014-04-08T15:42:23Z</time>
      </trkpt>
      <trkpt lat="47.16109" lon="-1.71984">
        <ele>26</ele>
        <time>2014-04-08T15:42:28Z</time>
      </trkpt>
      <trkpt lat="47.16134" lon="-1.71949">
        <ele>23</ele>
        <time>2014-04-08T15:42:32Z</time>
      </trkpt>
      <trkpt lat="47.16158" lon="-1.71918">
        <ele>24</ele>
        <time>2014-04-08T15:42:35Z</time>
      </trkpt>
      <trkpt lat="47.16182" lon="-1.71888">
        <ele>23</ele>
        <time>2014-04-08T15:42:39Z</time>
      </trkpt>
      <trkpt lat="47.16204" lon="-1.71857">
        <ele>23</ele>
        <time>2014-04-08T15:42:43Z</time>
      </trkpt>
      <trkpt lat="47.16224" lon="-1.71831">
        <ele>23</ele>
        <time>2014-04-08T15:42:47Z</time>
      </trkpt>
      <trkpt lat="47.16238" lon="-1.71817">
        <ele>24</ele>
        <time>2014-04-08T15:42:51Z</time>
      </trkpt>
      <trkpt lat="47.16246" lon="-1.71816">
        <ele>24</ele>
        <time>2014-04-08T15:42:53Z</time>
      </trkpt>
      <trkpt lat="47.16273" lon="-1.71838">
        <ele>23</ele>
        <time>2014-04-08T15:42:58Z</time>
      </trkpt>
      <trkpt lat="47.1631" lon="-1.7186">
        <ele>20</ele>
        <time>2014-04-08T15:43:04Z</time>
      </trkpt>
      <trkpt lat="47.16338" lon="-1.71884">
        <ele>19</ele>
        <time>2014-04-08T15:43:07Z</time>
      </trkpt>
      <trkpt lat="47.16358" lon="-1.71907">
        <ele>20</ele>
        <time>2014-04-08T15:43:10Z</time>
      </trkpt>
      <trkpt lat="47.16377" lon="-1.71925">
        <ele>20</ele>
        <time>2014-04-08T15:43:13Z</time>
      </trkpt>
      <trkpt lat="47.16429" lon="-1.71963">
        <ele>19</ele>
        <time>2014-04-08T15:43:20Z</time>
      </trkpt>
      <trkpt lat="47.16458" lon="-1.71983">
        <ele>19</ele>
        <time>2014-04-08T15:43:24Z</time>
      </trkpt>
      <trkpt lat="47.16509" lon="-1.71999">
        <ele>16</ele>
        <time>2014-04-08T15:43:29Z</time>
      </trkpt>
      <trkpt lat="47.16541" lon="-1.72008">
        <ele>12</ele>
        <time>2014-04-08T15:43:32Z</time>
      </trkpt>
      <trkpt lat="47.16569" lon="-1.72008">
        <ele>15</ele>
        <time>2014-04-08T15:43:36Z</time>
      </trkpt>
      <trkpt lat="47.16601" lon="-1.72008">
        <ele>13</ele>
        <time>2014-04-08T15:43:39Z</time>
      </trkpt>
      <trkpt lat="47.16631" lon="-1.72007">
        <ele>13</ele>
        <time>2014-04-08T15:43:44Z</time>
      </trkpt>
      <trkpt lat="47.16661" lon="-1.72009">
        <ele>12</ele>
        <time>2014-04-08T15:43:48Z</time>
      </trkpt>
      <trkpt lat="47.16696" lon="-1.7201">
        <ele>10</ele>
        <time>2014-04-08T15:43:53Z</time>
      </trkpt>
      <trkpt lat="47.16714" lon="-1.72008">
        <ele>9</ele>
        <time>2014-04-08T15:43:56Z</time>
      </trkpt>
      <trkpt lat="47.16739" lon="-1.7201">
        <ele>9</ele>
        <time>2014-04-08T15:44:00Z</time>
      </trkpt>
      <trkpt lat="47.16759" lon="-1.72007">
        <ele>11</ele>
        <time>2014-04-08T15:44:04Z</time>
      </trkpt>
      <trkpt lat="47.16775" lon="-1.72004">
        <ele>12</ele>
        <time>2014-04-08T15:44:06Z</time>
      </trkpt>
      <trkpt lat="47.16798" lon="-1.72002">
        <ele>13</ele>
        <time>2014-04-08T15:44:10Z</time>
      </trkpt>
      <trkpt lat="47.16831" lon="-1.72005">
        <ele>16</ele>
        <time>2014-04-08T15:44:17Z</time>
      </trkpt>
      <trkpt lat="47.16852" lon="-1.7201">
        <ele>17</ele>
        <time>2014-04-08T15:44:20Z</time>
      </trkpt>
      <trkpt lat="47.16868" lon="-1.72014">
        <ele>17</ele>
        <time>2014-04-08T15:44:24Z</time>
      </trkpt>
      <trkpt lat="47.16888" lon="-1.72019">
        <ele>16</ele>
        <time>2014-04-08T15:44:27Z</time>
      </trkpt>
      <trkpt lat="47.16904" lon="-1.72021">
        <ele>17</ele>
        <time>2014-04-08T15:44:32Z</time>
      </trkpt>
      <trkpt lat="47.16922" lon="-1.72014">
        <ele>20</ele>
        <time>2014-04-08T15:44:36Z</time>
      </trkpt>
      <trkpt lat="47.16939" lon="-1.72011">
        <ele>21</ele>
        <time>2014-04-08T15:44:40Z</time>
      </trkpt>
      <trkpt lat="47.16954" lon="-1.72002">
        <ele>22</ele>
        <time>2014-04-08T15:44:44Z</time>
      </trkpt>
      <trkpt lat="47.16973" lon="-1.7199">
        <ele>20</ele>
        <time>2014-04-08T15:44:49Z</time>
      </trkpt>
      <trkpt lat="47.16994" lon="-1.71977">
        <ele>20</ele>
        <time>2014-04-08T15:44:53Z</time>
      </trkpt>
      <trkpt lat="47.17018" lon="-1.71957">
        <ele>21</ele>
        <time>2014-04-08T15:44:57Z</time>
      </trkpt>
      <trkpt lat="47.17037" lon="-1.71944">
        <ele>21</ele>
        <time>2014-04-08T15:45:00Z</time>
      </trkpt>
      <trkpt lat="47.17066" lon="-1.71912">
        <ele>17</ele>
        <time>2014-04-08T15:45:05Z</time>
      </trkpt>
      <trkpt lat="47.17083" lon="-1.71878">
        <ele>19</ele>
        <time>2014-04-08T15:45:08Z</time>
      </trkpt>
      <trkpt lat="47.17093" lon="-1.71825">
        <ele>20</ele>
        <time>2014-04-08T15:45:13Z</time>
      </trkpt>
      <trkpt lat="47.17096" lon="-1.71791">
        <ele>18</ele>
        <time>2014-04-08T15:45:16Z</time>
      </trkpt>
      <trkpt lat="47.17096" lon="-1.71736">
        <ele>18</ele>
        <time>2014-04-08T15:45:21Z</time>
      </trkpt>
      <trkpt lat="47.17099" lon="-1.71707">
        <ele>17</ele>
        <time>2014-04-08T15:45:22Z</time>
      </trkpt>
      <trkpt lat="47.17105" lon="-1.71634">
        <ele>16</ele>
        <time>2014-04-08T15:45:28Z</time>
      </trkpt>
      <trkpt lat="47.17122" lon="-1.71554">
        <ele>21</ele>
        <time>2014-04-08T15:45:34Z</time>
      </trkpt>
      <trkpt lat="47.17131" lon="-1.71516">
        <ele>21</ele>
        <time>2014-04-08T15:45:37Z</time>
      </trkpt>
      <trkpt lat="47.17139" lon="-1.71493">
        <ele>21</ele>
        <time>2014-04-08T15:45:39Z</time>
      </trkpt>
      <trkpt lat="47.17165" lon="-1.71414">
        <ele>23</ele>
        <time>2014-04-08T15:45:46Z</time>
      </trkpt>
      <trkpt lat="47.17172" lon="-1.71385">
        <ele>23</ele>
        <time>2014-04-08T15:45:48Z</time>
      </trkpt>
      <trkpt lat="47.17191" lon="-1.71332">
        <ele>24</ele>
        <time>2014-04-08T15:45:53Z</time>
      </trkpt>
      <trkpt lat="47.17199" lon="-1.71301">
        <ele>24</ele>
        <time>2014-04-08T15:45:57Z</time>
      </trkpt>
      <trkpt lat="47.17212" lon="-1.71271">
        <ele>25</ele>
        <time>2014-04-08T15:46:00Z</time>
      </trkpt>
      <trkpt lat="47.17225" lon="-1.71227">
        <ele>26</ele>
        <time>2014-04-08T15:46:05Z</time>
      </trkpt>
      <trkpt lat="47.17237" lon="-1.71186">
        <ele>26</ele>
        <time>2014-04-08T15:46:08Z</time>
      </trkpt>
      <trkpt lat="47.17243" lon="-1.71167">
        <ele>25</ele>
        <time>2014-04-08T15:46:10Z</time>
      </trkpt>
      <trkpt lat="47.17256" lon="-1.71131">
        <ele>23</ele>
        <time>2014-04-08T15:46:15Z</time>
      </trkpt>
      <trkpt lat="47.1728" lon="-1.71065">
        <ele>25</ele>
        <time>2014-04-08T15:46:21Z</time>
      </trkpt>
      <trkpt lat="47.17291" lon="-1.71039">
        <ele>25</ele>
        <time>2014-04-08T15:46:25Z</time>
      </trkpt>
      <trkpt lat="47.17304" lon="-1.71002">
        <ele>26</ele>
        <time>2014-04-08T15:46:29Z</time>
      </trkpt>
      <trkpt lat="47.17311" lon="-1.70984">
        <ele>26</ele>
        <time>2014-04-08T15:46:30Z</time>
      </trkpt>
      <trkpt lat="47.17325" lon="-1.70945">
        <ele>27</ele>
        <time>2014-04-08T15:46:34Z</time>
      </trkpt>
      <trkpt lat="47.17347" lon="-1.7089">
        <ele>29</ele>
        <time>2014-04-08T15:46:41Z</time>
      </trkpt>
      <trkpt lat="47.17367" lon="-1.70839">
        <ele>28</ele>
        <time>2014-04-08T15:46:46Z</time>
      </trkpt>
      <trkpt lat="47.17379" lon="-1.70808">
        <ele>29</ele>
        <time>2014-04-08T15:46:48Z</time>
      </trkpt>
      <trkpt lat="47.17397" lon="-1.70769">
        <ele>29</ele>
        <time>2014-04-08T15:46:52Z</time>
      </trkpt>
      <trkpt lat="47.17415" lon="-1.70732">
        <ele>29</ele>
        <time>2014-04-08T15:46:57Z</time>
      </trkpt>
      <trkpt lat="47.17434" lon="-1.70697">
        <ele>29</ele>
        <time>2014-04-08T15:47:01Z</time>
      </trkpt>
      <trkpt lat="47.17461" lon="-1.70645">
        <ele>29</ele>
        <time>2014-04-08T15:47:06Z</time>
      </trkpt>
      <trkpt lat="47.17478" lon="-1.70609">
        <ele>27</ele>
        <time>2014-04-08T15:47:11Z</time>
      </trkpt>
      <trkpt lat="47.17493" lon="-1.70583">
        <ele>28</ele>
        <time>2014-04-08T15:47:13Z</time>
      </trkpt>
      <trkpt lat="47.17513" lon="-1.70542">
        <ele>27</ele>
        <time>2014-04-08T15:47:18Z</time>
      </trkpt>
      <trkpt lat="47.17531" lon="-1.70502">
        <ele>28</ele>
        <time>2014-04-08T15:47:22Z</time>
      </trkpt>
      <trkpt lat="47.17545" lon="-1.70478">
        <ele>29</ele>
        <time>2014-04-08T15:47:24Z</time>
      </trkpt>
      <trkpt lat="47.1756" lon="-1.70452">
        <ele>30</ele>
        <time>2014-04-08T15:47:28Z</time>
      </trkpt>
      <trkpt lat="47.17579" lon="-1.70397">
        <ele>30</ele>
        <time>2014-04-08T15:47:34Z</time>
      </trkpt>
      <trkpt lat="47.17601" lon="-1.70372">
        <ele>33</ele>
        <time>2014-04-08T15:47:38Z</time>
      </trkpt>
      <trkpt lat="47.17625" lon="-1.70363">
        <ele>31</ele>
        <time>2014-04-08T15:47:41Z</time>
      </trkpt>
      <trkpt lat="47.17646" lon="-1.70336">
        <ele>32</ele>
        <time>2014-04-08T15:47:46Z</time>
      </trkpt>
      <trkpt lat="47.17667" lon="-1.70311">
        <ele>32</ele>
        <time>2014-04-08T15:47:50Z</time>
      </trkpt>
      <trkpt lat="47.17683" lon="-1.70293">
        <ele>30</ele>
        <time>2014-04-08T15:47:52Z</time>
      </trkpt>
      <trkpt lat="47.1771" lon="-1.70257">
        <ele>32</ele>
        <time>2014-04-08T15:47:57Z</time>
      </trkpt>
      <trkpt lat="47.17717" lon="-1.70236">
        <ele>32</ele>
        <time>2014-04-08T15:47:59Z</time>
      </trkpt>
      <trkpt lat="47.17741" lon="-1.70208">
        <ele>32</ele>
        <time>2014-04-08T15:48:03Z</time>
      </trkpt>
      <trkpt lat="47.17726" lon="-1.70144">
        <ele>30</ele>
        <time>2014-04-08T15:48:10Z</time>
      </trkpt>
      <trkpt lat="47.17699" lon="-1.70107">
        <ele>32</ele>
        <time>2014-04-08T15:48:14Z</time>
      </trkpt>
      <trkpt lat="47.17674" lon="-1.70069">
        <ele>31</ele>
        <time>2014-04-08T15:48:18Z</time>
      </trkpt>
      <trkpt lat="47.17652" lon="-1.70023">
        <ele>31</ele>
        <time>2014-04-08T15:48:22Z</time>
      </trkpt>
      <trkpt lat="47.17633" lon="-1.69975">
        <ele>30</ele>
        <time>2014-04-08T15:48:26Z</time>
      </trkpt>
      <trkpt lat="47.17612" lon="-1.69915">
        <ele>30</ele>
        <time>2014-04-08T15:48:31Z</time>
      </trkpt>
      <trkpt lat="47.17605" lon="-1.69889">
        <ele>29</ele>
        <time>2014-04-08T15:48:33Z</time>
      </trkpt>
      <trkpt lat="47.17593" lon="-1.69828">
        <ele>30</ele>
        <time>2014-04-08T15:48:37Z</time>
      </trkpt>
      <trkpt lat="47.17587" lon="-1.69776">
        <ele>30</ele>
        <time>2014-04-08T15:48:42Z</time>
      </trkpt>
      <trkpt lat="47.17586" lon="-1.6972">
        <ele>29</ele>
        <time>2014-04-08T15:48:46Z</time>
      </trkpt>
      <trkpt lat="47.17582" lon="-1.69663">
        <ele>30</ele>
        <time>2014-04-08T15:48:50Z</time>
      </trkpt>
      <trkpt lat="47.1758" lon="-1.69603">
        <ele>31</ele>
        <time>2014-04-08T15:48:55Z</time>
      </trkpt>
      <trkpt lat="47.17591" lon="-1.69595">
        <ele>30</ele>
        <time>2014-04-08T15:48:56Z</time>
      </trkpt>
      <trkpt lat="47.17628" lon="-1.69574">
        <ele>31</ele>
        <time>2014-04-08T15:49:02Z</time>
      </trkpt>
      <trkpt lat="47.17669" lon="-1.69557">
        <ele>32</ele>
        <time>2014-04-08T15:49:07Z</time>
      </trkpt>
      <trkpt lat="47.17696" lon="-1.69547">
        <ele>30</ele>
        <time>2014-04-08T15:49:09Z</time>
      </trkpt>
      <trkpt lat="47.17731" lon="-1.69537">
        <ele>28</ele>
        <time>2014-04-08T15:49:13Z</time>
      </trkpt>
      <trkpt lat="47.17764" lon="-1.69519">
        <ele>26</ele>
        <time>2014-04-08T15:49:18Z</time>
      </trkpt>
      <trkpt lat="47.1779" lon="-1.6951">
        <ele>24</ele>
        <time>2014-04-08T15:49:21Z</time>
      </trkpt>
      <trkpt lat="47.17837" lon="-1.69495">
        <ele>25</ele>
        <time>2014-04-08T15:49:26Z</time>
      </trkpt>
      <trkpt lat="47.17867" lon="-1.69487">
        <ele>25</ele>
        <time>2014-04-08T15:49:28Z</time>
      </trkpt>
      <trkpt lat="47.1791" lon="-1.69482">
        <ele>23</ele>
        <time>2014-04-08T15:49:34Z</time>
      </trkpt>
      <trkpt lat="47.17957" lon="-1.6948">
        <ele>23</ele>
        <time>2014-04-08T15:49:38Z</time>
      </trkpt>
      <trkpt lat="47.17992" lon="-1.69475">
        <ele>20</ele>
        <time>2014-04-08T15:49:43Z</time>
      </trkpt>
      <trkpt lat="47.18011" lon="-1.69475">
        <ele>20</ele>
        <time>2014-04-08T15:49:45Z</time>
      </trkpt>
      <trkpt lat="47.18062" lon="-1.69464">
        <ele>22</ele>
        <time>2014-04-08T15:49:50Z</time>
      </trkpt>
      <trkpt lat="47.18071" lon="-1.69461">
        <ele>23</ele>
        <time>2014-04-08T15:49:52Z</time>
      </trkpt>
      <trkpt lat="47.18132" lon="-1.69441">
        <ele>22</ele>
        <time>2014-04-08T15:49:59Z</time>
      </trkpt>
      <trkpt lat="47.18156" lon="-1.69432">
        <ele>21</ele>
        <time>2014-04-08T15:50:02Z</time>
      </trkpt>
      <trkpt lat="47.18197" lon="-1.69416">
        <ele>21</ele>
        <time>2014-04-08T15:50:07Z</time>
      </trkpt>
      <trkpt lat="47.1822" lon="-1.69409">
        <ele>21</ele>
        <time>2014-04-08T15:50:09Z</time>
      </trkpt>
      <trkpt lat="47.18257" lon="-1.69396">
        <ele>20</ele>
        <time>2014-04-08T15:50:14Z</time>
      </trkpt>
      <trkpt lat="47.18293" lon="-1.6938">
        <ele>21</ele>
        <time>2014-04-08T15:50:20Z</time>
      </trkpt>
      <trkpt lat="47.18314" lon="-1.69369">
        <ele>20</ele>
        <time>2014-04-08T15:50:22Z</time>
      </trkpt>
      <trkpt lat="47.18336" lon="-1.69354">
        <ele>21</ele>
        <time>2014-04-08T15:50:26Z</time>
      </trkpt>
      <trkpt lat="47.18373" lon="-1.69322">
        <ele>22</ele>
        <time>2014-04-08T15:50:31Z</time>
      </trkpt>
      <trkpt lat="47.18405" lon="-1.69302">
        <ele>22</ele>
        <time>2014-04-08T15:50:34Z</time>
      </trkpt>
      <trkpt lat="47.18449" lon="-1.69271">
        <ele>21</ele>
        <time>2014-04-08T15:50:39Z</time>
      </trkpt>
      <trkpt lat="47.18476" lon="-1.6926">
        <ele>20</ele>
        <time>2014-04-08T15:50:43Z</time>
      </trkpt>
      <trkpt lat="47.18522" lon="-1.69234">
        <ele>21</ele>
        <time>2014-04-08T15:50:48Z</time>
      </trkpt>
      <trkpt lat="47.1856" lon="-1.69218">
        <ele>21</ele>
        <time>2014-04-08T15:50:52Z</time>
      </trkpt>
      <trkpt lat="47.18588" lon="-1.69203">
        <ele>22</ele>
        <time>2014-04-08T15:50:54Z</time>
      </trkpt>
      <trkpt lat="47.18621" lon="-1.69178">
        <ele>20</ele>
        <time>2014-04-08T15:50:58Z</time>
      </trkpt>
      <trkpt lat="47.18652" lon="-1.69149">
        <ele>19</ele>
        <time>2014-04-08T15:51:02Z</time>
      </trkpt>
      <trkpt lat="47.18682" lon="-1.69125">
        <ele>18</ele>
        <time>2014-04-08T15:51:07Z</time>
      </trkpt>
      <trkpt lat="47.18726" lon="-1.69093">
        <ele>16</ele>
        <time>2014-04-08T15:51:12Z</time>
      </trkpt>
      <trkpt lat="47.18752" lon="-1.69075">
        <ele>16</ele>
        <time>2014-04-08T15:51:15Z</time>
      </trkpt>
      <trkpt lat="47.18787" lon="-1.69052">
        <ele>15</ele>
        <time>2014-04-08T15:51:19Z</time>
      </trkpt>
      <trkpt lat="47.18819" lon="-1.69028">
        <ele>13</ele>
        <time>2014-04-08T15:51:23Z</time>
      </trkpt>
      <trkpt lat="47.18837" lon="-1.68999">
        <ele>15</ele>
        <time>2014-04-08T15:51:25Z</time>
      </trkpt>
      <trkpt lat="47.18848" lon="-1.68967">
        <ele>17</ele>
        <time>2014-04-08T15:51:29Z</time>
      </trkpt>
      <trkpt lat="47.18849" lon="-1.68911">
        <ele>19</ele>
        <time>2014-04-08T15:51:34Z</time>
      </trkpt>
      <trkpt lat="47.18836" lon="-1.68863">
        <ele>21</ele>
        <time>2014-04-08T15:51:38Z</time>
      </trkpt>
      <trkpt lat="47.1883" lon="-1.68816">
        <ele>24</ele>
        <time>2014-04-08T15:51:43Z</time>
      </trkpt>
      <trkpt lat="47.18844" lon="-1.68802">
        <ele>25</ele>
        <time>2014-04-08T15:51:47Z</time>
      </trkpt>
    </trkseg>
  </trk>
</gpx>